Observation data for Palo Duro Canyon State Park Rim on 02/13/2020      Previous  Date  Next       Current Mesonet Observations  Soil Data  Daily Summary Page  Observations in Plain Language
KPD1 130600Z 00009KT 01/M03 A3014 RMK A01 T00081030  RH  075%=      5-min Rain = 0
KPD1 130601Z 00011KT 01/M03 A3014 RMK A01 T00081030  RH  075%=      5-min Rain = 0
KPD1 130602Z 00009KT 01/M03 A3014 RMK A01 T00081030  RH  075%=      5-min Rain = 0
KPD1 130603Z 00007KT 01/M03 A3014 RMK A01 T00081030  RH  075%=      5-min Rain = 0
KPD1 130604Z 01010KT 01/M03 A3014 RMK A01 T00081030  RH  076%=      5-min Rain = 0
KPD1 130605Z 01012KT 01/M03 A3014 RMK A01 T00081030  RH  076%=      5-min Rain = 0
KPD1 130606Z 00008KT 01/M03 A3014 RMK A01 T00081030  RH  076%=      5-min Rain = 0
KPD1 130607Z 00008KT 01/M03 A3014 RMK A01 T00071030  RH  076%=      5-min Rain = 0
KPD1 130608Z 00008G13KT 01/M03 A3014 RMK A01 T00071030  RH  076%=      5-min Rain = 0
KPD1 130609Z 00008KT 01/M03 A3014 RMK A01 T00061030  RH  077%=      5-min Rain = 0
KPD1 130610Z 01010KT 01/M03 A3014 RMK A01 T00061030  RH  077%=      5-min Rain = 0
KPD1 130611Z 36006KT 01/M03 A3014 RMK A01 T00051030  RH  077%=      5-min Rain = 0
KPD1 130612Z 34007KT 01/M03 A3014 RMK A01 T00051030  RH  077%=      5-min Rain = 0
KPD1 130613Z 01010KT 00/M03 A3014 RMK A01 T00041030  RH  077%=      5-min Rain = 0
KPD1 130614Z 36008KT 00/M03 A3014 RMK A01 T00041031  RH  078%=      5-min Rain = 0
KPD1 130615Z 35006KT 00/M03 A3014 RMK A01 T00041030  RH  078%=      5-min Rain = 0
KPD1 130616Z 01008KT 00/M03 A3014 RMK A01 T00041031  RH  078%=      5-min Rain = 0
KPD1 130617Z 36011G16KT 00/M03 A3015 RMK A01 T00031031  RH  078%=      5-min Rain = 0
KPD1 130618Z 00009KT 00/M03 A3015 RMK A01 T00031032  RH  077%=      5-min Rain = 0
KPD1 130619Z 01011KT 00/M03 A3015 RMK A01 T00031033  RH  077%=      5-min Rain = 0
KPD1 130620Z 00008KT 00/M03 A3015 RMK A01 T00021034  RH  077%=      5-min Rain = 0
KPD1 130621Z 01007KT 00/M03 A3015 RMK A01 T00021034  RH  076%=      5-min Rain = 0
KPD1 130622Z 01009KT 00/M03 A3015 RMK A01 T00021034  RH  077%=      5-min Rain = 0
KPD1 130623Z 36010KT 00/M04 A3015 RMK A01 T00021035  RH  076%=      5-min Rain = 0
KPD1 130624Z 01010KT 00/M04 A3015 RMK A01 T00011037  RH  076%=      5-min Rain = 0
KPD1 130625Z 35007KT 00/M04 A3015 RMK A01 T00011037  RH  075%=      5-min Rain = 0
KPD1 130626Z 00007G12KT 00/M04 A3015 RMK A01 T00011037  RH  075%=      5-min Rain = 0
KPD1 130627Z 01007KT 00/04 A3015 RMK A01 T00000-38  RH  075%=      5-min Rain = 0
KPD1 130628Z 01009KT 00/04 A3015 RMK A01 T00000-39  RH  075%=      5-min Rain = 0
KPD1 130629Z 00007KT M00/M04 A3015 RMK A01 T10011040  RH  075%=      5-min Rain = 0
KPD1 130630Z 00007KT M00/M04 A3015 RMK A01 T10011040  RH  075%=      5-min Rain = 0
KPD1 130631Z 35007KT M00/M04 A3015 RMK A01 T10011041  RH  075%=      5-min Rain = 0
KPD1 130632Z 35008KT M00/M04 A3015 RMK A01 T10021042  RH  074%=      5-min Rain = 0
KPD1 130633Z 00007KT M00/M04 A3015 RMK A01 T10021043  RH  074%=      5-min Rain = 0
KPD1 130634Z 00009KT M00/M04 A3015 RMK A01 T10011042  RH  074%=      5-min Rain = 0
KPD1 130635Z 36009G14KT M00/M04 A3015 RMK A01 T10021042  RH  074%=      5-min Rain = 0
KPD1 130636Z 36012KT M00/M04 A3015 RMK A01 T10021043  RH  074%=      5-min Rain = 0
KPD1 130637Z 01008KT M00/M04 A3015 RMK A01 T10021044  RH  073%=      5-min Rain = 0
KPD1 130638Z 00006KT M00/M04 A3015 RMK A01 T10021044  RH  073%=      5-min Rain = 0
KPD1 130639Z 00006KT M00/M04 A3015 RMK A01 T10021044  RH  073%=      5-min Rain = 0
KPD1 130640Z 00005KT M00/M04 A3015 RMK A01 T10031044  RH  074%=      5-min Rain = 0
KPD1 130641Z 00010KT M00/M05 A3015 RMK A01 T10041045  RH  074%=      5-min Rain = 0
KPD1 130642Z 35008KT M00/M05 A3015 RMK A01 T10041045  RH  074%=      5-min Rain = 0
KPD1 130643Z 35008KT M00/M05 A3015 RMK A01 T10041045  RH  074%=      5-min Rain = 0
KPD1 130644Z 36008KT M00/M05 A3015 RMK A01 T10041045  RH  074%=      5-min Rain = 0
KPD1 130645Z 00011KT M00/M05 A3015 RMK A01 T10041045  RH  074%=      5-min Rain = 0
KPD1 130646Z 35009KT M00/M05 A3015 RMK A01 T10041045  RH  074%=      5-min Rain = 0
KPD1 130647Z 00009KT M00/M05 A3015 RMK A01 T10041046  RH  073%=      5-min Rain = 0
KPD1 130648Z 34009KT M00/M05 A3015 RMK A01 T10041046  RH  073%=      5-min Rain = 0
KPD1 130649Z 00009KT M00/M05 A3016 RMK A01 T10041046  RH  073%=      5-min Rain = 0
KPD1 130650Z 35008KT M00/M05 A3015 RMK A01 T10041046  RH  073%=      5-min Rain = 0
KPD1 130651Z 35011KT M00/M05 A3016 RMK A01 T10041046  RH  073%=      5-min Rain = 0
KPD1 130652Z 35009KT M00/M05 A3016 RMK A01 T10041047  RH  073%=      5-min Rain = 0
KPD1 130653Z 36009KT M00/M05 A3016 RMK A01 T10041047  RH  073%=      5-min Rain = 0
KPD1 130654Z 35010KT M01/M05 A3016 RMK A01 T10051047  RH  073%=      5-min Rain = 0
KPD1 130655Z 35009KT M00/M05 A3016 RMK A01 T10041047  RH  073%=      5-min Rain = 0
KPD1 130656Z 36011KT M01/M05 A3016 RMK A01 T10051048  RH  073%=      5-min Rain = 0
KPD1 130657Z 35011KT M01/M05 A3016 RMK A01 T10051048  RH  073%=      5-min Rain = 0
KPD1 130658Z 35011KT M01/M05 A3016 RMK A01 T10051049  RH  072%=      5-min Rain = 0
KPD1 130659Z 35011KT M01/M05 A3016 RMK A01 T10051049  RH  072%=      5-min Rain = 0
KPD1 130700Z 36010KT M01/M05 A3015 RMK A01 T10051049  RH  072%=      5-min Rain = 0
KPD1 130701Z 36008G13KT M01/M05 A3015 RMK A01 T10051049  RH  072%=      5-min Rain = 0
KPD1 130702Z 36008KT M01/M05 A3015 RMK A01 T10061050  RH  072%=      5-min Rain = 0
KPD1 130703Z 00009KT M01/M05 A3015 RMK A01 T10061050  RH  072%=      5-min Rain = 0
KPD1 130704Z 36010KT M01/M05 A3015 RMK A01 T10071051  RH  072%=      5-min Rain = 0
KPD1 130705Z 36010KT M01/M05 A3015 RMK A01 T10071051  RH  072%=      5-min Rain = 0
KPD1 130706Z 36008KT M01/M05 A3015 RMK A01 T10071051  RH  072%=      5-min Rain = 0
KPD1 130707Z 01009KT M01/M05 A3015 RMK A01 T10071051  RH  072%=      5-min Rain = 0
KPD1 130708Z 35009KT M01/M05 A3015 RMK A01 T10071052  RH  072%=      5-min Rain = 0
KPD1 130709Z 35008KT M01/M05 A3016 RMK A01 T10081052  RH  072%=      5-min Rain = 0
KPD1 130710Z 01008KT M01/M05 A3016 RMK A01 T10081053  RH  072%=      5-min Rain = 0
KPD1 130711Z 01007KT M01/M05 A3016 RMK A01 T10081053  RH  072%=      5-min Rain = 0
KPD1 130712Z 35008KT M01/M05 A3016 RMK A01 T10081053  RH  072%=      5-min Rain = 0
KPD1 130713Z 00009KT M01/M05 A3016 RMK A01 T10091054  RH  072%=      5-min Rain = 0
KPD1 130714Z 00008KT M01/M05 A3016 RMK A01 T10091054  RH  071%=      5-min Rain = 0
KPD1 130715Z 00009KT M01/M05 A3016 RMK A01 T10091054  RH  071%=      5-min Rain = 0
KPD1 130716Z 35009KT M01/M05 A3016 RMK A01 T10091054  RH  071%=      5-min Rain = 0
KPD1 130717Z 00009KT M01/M05 A3016 RMK A01 T10091054  RH  071%=      5-min Rain = 0
KPD1 130718Z 35007KT M01/M05 A3016 RMK A01 T10081054  RH  071%=      5-min Rain = 0
KPD1 130719Z 35009KT M01/M05 A3016 RMK A01 T10091053  RH  072%=      5-min Rain = 0
KPD1 130720Z 36008KT M01/M05 A3016 RMK A01 T10091054  RH  072%=      5-min Rain = 0
KPD1 130721Z 35008KT M01/M05 A3016 RMK A01 T10091054  RH  072%=      5-min Rain = 0
KPD1 130722Z 00010KT M01/M05 A3016 RMK A01 T10091054  RH  072%=      5-min Rain = 0
KPD1 130723Z 35012KT M01/M05 A3016 RMK A01 T10091054  RH  072%=      5-min Rain = 0
KPD1 130724Z 35010KT M01/M06 A3016 RMK A01 T10091055  RH  071%=      5-min Rain = 0
KPD1 130725Z 35010KT M01/M06 A3016 RMK A01 T10101056  RH  071%=      5-min Rain = 0
KPD1 130726Z 36009G14KT M01/M06 A3016 RMK A01 T10101056  RH  071%=      5-min Rain = 0
KPD1 130727Z 35010KT M01/M06 A3016 RMK A01 T10111056  RH  071%=      5-min Rain = 0
KPD1 130728Z 36012KT M01/M06 A3016 RMK A01 T10111057  RH  071%=      5-min Rain = 0
KPD1 130729Z 01012KT M01/M06 A3016 RMK A01 T10111057  RH  071%=      5-min Rain = 0
KPD1 130730Z 36011KT M01/M06 A3016 RMK A01 T10111058  RH  071%=      5-min Rain = 0
KPD1 130731Z 36008KT M01/M06 A3016 RMK A01 T10121058  RH  071%=      5-min Rain = 0
KPD1 130732Z 35010KT M01/M06 A3016 RMK A01 T10111058  RH  071%=      5-min Rain = 0
KPD1 130733Z 35012KT M01/M06 A3016 RMK A01 T10121058  RH  071%=      5-min Rain = 0
KPD1 130734Z 00011KT M01/M06 A3016 RMK A01 T10121059  RH  071%=      5-min Rain = 0
KPD1 130735Z 00013KT M01/M06 A3016 RMK A01 T10121058  RH  071%=      5-min Rain = 0
KPD1 130736Z 00012KT M01/M06 A3016 RMK A01 T10131059  RH  071%=      5-min Rain = 0
KPD1 130737Z 36011KT M01/M06 A3016 RMK A01 T10131060  RH  071%=      5-min Rain = 0
KPD1 130738Z 35009KT M01/M06 A3016 RMK A01 T10141060  RH  071%=      5-min Rain = 0
KPD1 130739Z 35011KT M01/M06 A3016 RMK A01 T10141060  RH  071%=      5-min Rain = 0
KPD1 130740Z 35010KT M01/M06 A3016 RMK A01 T10141060  RH  071%=      5-min Rain = 0
KPD1 130741Z 35010KT M01/M06 A3016 RMK A01 T10141060  RH  071%=      5-min Rain = 0
KPD1 130742Z 35010KT M02/M06 A3016 RMK A01 T10151060  RH  071%=      5-min Rain = 0
KPD1 130743Z 36013KT M02/M06 A3016 RMK A01 T10151061  RH  071%=      5-min Rain = 0
KPD1 130744Z 00010KT M02/M06 A3017 RMK A01 T10151061  RH  071%=      5-min Rain = 0
KPD1 130745Z 34008KT M02/M06 A3017 RMK A01 T10151061  RH  071%=      5-min Rain = 0
KPD1 130746Z 36009KT M02/M06 A3017 RMK A01 T10161062  RH  071%=      5-min Rain = 0
KPD1 130747Z 36010KT M02/M06 A3017 RMK A01 T10161062  RH  071%=      5-min Rain = 0
KPD1 130748Z 36010KT M02/M06 A3017 RMK A01 T10161062  RH  071%=      5-min Rain = 0
KPD1 130749Z 00010KT M02/M06 A3017 RMK A01 T10161063  RH  071%=      5-min Rain = 0
KPD1 130750Z 35009KT M02/M06 A3017 RMK A01 T10171063  RH  070%=      5-min Rain = 0
KPD1 130751Z 00012KT M02/M06 A3017 RMK A01 T10171064  RH  070%=      5-min Rain = 0
KPD1 130752Z 35011KT M02/M07 A3017 RMK A01 T10171065  RH  070%=      5-min Rain = 0
KPD1 130753Z 00008KT M02/M07 A3017 RMK A01 T10171065  RH  070%=      5-min Rain = 0
KPD1 130754Z 36009KT M02/M06 A3017 RMK A01 T10171064  RH  070%=      5-min Rain = 0
KPD1 130755Z 35011KT M02/M07 A3017 RMK A01 T10171065  RH  070%=      5-min Rain = 0
KPD1 130756Z 01010KT M02/M07 A3017 RMK A01 T10171065  RH  070%=      5-min Rain = 0
KPD1 130757Z 35009G14KT M02/M06 A3017 RMK A01 T10171064  RH  070%=      5-min Rain = 0
KPD1 130758Z 01010KT M02/M06 A3017 RMK A01 T10181064  RH  071%=      5-min Rain = 0
KPD1 130759Z 00010KT M02/M06 A3017 RMK A01 T10181064  RH  071%=      5-min Rain = 0
KPD1 130800Z 00009G14KT M02/M06 A3017 RMK A01 T10181063  RH  071%=      5-min Rain = 0
KPD1 130801Z 00012G17KT M02/M06 A3017 RMK A01 T10181063  RH  071%=      5-min Rain = 0
KPD1 130802Z 02011KT M02/M06 A3017 RMK A01 T10181063  RH  071%=      5-min Rain = 0
KPD1 130803Z 01012KT M02/M06 A3017 RMK A01 T10181063  RH  071%=      5-min Rain = 0
KPD1 130804Z 00014KT M02/M06 A3017 RMK A01 T10181064  RH  071%=      5-min Rain = 0
KPD1 130805Z 01011KT M02/M06 A3017 RMK A01 T10181064  RH  071%=      5-min Rain = 0
KPD1 130806Z 01014G19KT M02/M06 A3017 RMK A01 T10191064  RH  071%=      5-min Rain = 0
KPD1 130807Z 00013KT M02/M06 A3017 RMK A01 T10191064  RH  071%=      5-min Rain = 0
KPD1 130808Z 00012KT M02/M07 A3017 RMK A01 T10191065  RH  071%=      5-min Rain = 0
KPD1 130809Z 01012KT M02/M07 A3017 RMK A01 T10191065  RH  071%=      5-min Rain = 0
KPD1 130810Z 01014KT M02/M07 A3017 RMK A01 T10201065  RH  071%=      5-min Rain = 0
KPD1 130811Z 01011KT M02/M07 A3017 RMK A01 T10201066  RH  071%=      5-min Rain = 0
KPD1 130812Z 02011G16KT M02/M07 A3017 RMK A01 T10201066  RH  071%=      5-min Rain = 0
KPD1 130813Z 02015G20KT M02/M07 A3017 RMK A01 T10211066  RH  071%=      5-min Rain = 0
KPD1 130814Z 01009KT M02/M07 A3017 RMK A01 T10211066  RH  071%=      5-min Rain = 0
KPD1 130815Z 01010KT M02/M07 A3017 RMK A01 T10211066  RH  071%=      5-min Rain = 0
KPD1 130816Z 02009KT M02/M07 A3017 RMK A01 T10211066  RH  072%=      5-min Rain = 0
KPD1 130817Z 01008KT M02/M07 A3017 RMK A01 T10211065  RH  072%=      5-min Rain = 0
KPD1 130818Z 02010KT M02/M07 A3017 RMK A01 T10221066  RH  072%=      5-min Rain = 0
KPD1 130819Z 00009KT M02/M07 A3017 RMK A01 T10221065  RH  072%=      5-min Rain = 0
KPD1 130820Z 01012KT M02/M07 A3017 RMK A01 T10221066  RH  072%=      5-min Rain = 0
KPD1 130821Z 02013G18KT M02/M07 A3017 RMK A01 T10221066  RH  072%=      5-min Rain = 0
KPD1 130822Z 02014KT M02/M07 A3017 RMK A01 T10221066  RH  072%=      5-min Rain = 0
KPD1 130823Z 02013KT M02/M07 A3017 RMK A01 T10231066  RH  072%=      5-min Rain = 0
KPD1 130824Z 02012KT M02/M07 A3017 RMK A01 T10231066  RH  072%=      5-min Rain = 0
KPD1 130825Z 03010KT M02/M07 A3017 RMK A01 T10231067  RH  072%=      5-min Rain = 0
KPD1 130826Z 01010KT M02/M07 A3017 RMK A01 T10231066  RH  072%=      5-min Rain = 0
KPD1 130827Z 01009KT M02/M07 A3017 RMK A01 T10231066  RH  073%=      5-min Rain = 0
KPD1 130828Z 01012KT M02/M07 A3017 RMK A01 T10241066  RH  073%=      5-min Rain = 0
KPD1 130829Z 01011KT M02/M07 A3017 RMK A01 T10241066  RH  073%=      5-min Rain = 0
KPD1 130830Z 02011G16KT M02/M07 A3017 RMK A01 T10241066  RH  073%=      5-min Rain = 0
KPD1 130831Z 01010KT M02/M07 A3017 RMK A01 T10241066  RH  073%=      5-min Rain = 0
KPD1 130832Z 01010KT M02/M07 A3017 RMK A01 T10241066  RH  073%=      5-min Rain = 0
KPD1 130833Z 02009G14KT M02/M07 A3017 RMK A01 T10241065  RH  073%=      5-min Rain = 0
KPD1 130834Z 01010KT M02/M06 A3017 RMK A01 T10241064  RH  074%=      5-min Rain = 0
KPD1 130835Z 01010KT M03/M06 A3017 RMK A01 T10251064  RH  074%=      5-min Rain = 0
KPD1 130836Z 01012KT M03/M06 A3017 RMK A01 T10251064  RH  074%=      5-min Rain = 0
KPD1 130837Z 01012KT M02/M06 A3018 RMK A01 T10241064  RH  074%=      5-min Rain = 0
KPD1 130838Z 01012KT M03/M06 A3018 RMK A01 T10251064  RH  074%=      5-min Rain = 0
KPD1 130839Z 00012KT M03/M06 A3018 RMK A01 T10251064  RH  074%=      5-min Rain = 0
KPD1 130840Z 00009KT M03/M06 A3018 RMK A01 T10251064  RH  074%=      5-min Rain = 0
KPD1 130841Z 01014KT M03/M07 A3018 RMK A01 T10251065  RH  074%=      5-min Rain = 0
KPD1 130842Z 01013KT M03/M07 A3018 RMK A01 T10261065  RH  074%=      5-min Rain = 0
KPD1 130843Z 00012KT M03/M07 A3018 RMK A01 T10261066  RH  074%=      5-min Rain = 0
KPD1 130844Z 01012KT M03/M07 A3018 RMK A01 T10261067  RH  073%=      5-min Rain = 0
KPD1 130845Z 01012KT M03/M07 A3018 RMK A01 T10271068  RH  073%=      5-min Rain = 0
KPD1 130846Z 01009KT M03/M07 A3017 RMK A01 T10261068  RH  073%=      5-min Rain = 0
KPD1 130847Z 01009KT M03/M07 A3018 RMK A01 T10271068  RH  073%=      5-min Rain = 0
KPD1 130848Z 01013KT M03/M07 A3018 RMK A01 T10271068  RH  073%=      5-min Rain = 0
KPD1 130849Z 01011KT M03/M07 A3018 RMK A01 T10271068  RH  073%=      5-min Rain = 0
KPD1 130850Z 01011KT M03/M07 A3018 RMK A01 T10271068  RH  073%=      5-min Rain = 0
KPD1 130851Z 02011KT M03/M07 A3018 RMK A01 T10271068  RH  073%=      5-min Rain = 0
KPD1 130852Z 02010KT M03/M07 A3017 RMK A01 T10281069  RH  073%=      5-min Rain = 0
KPD1 130853Z 01013KT M03/M07 A3017 RMK A01 T10281069  RH  073%=      5-min Rain = 0
KPD1 130854Z 03009KT M03/M07 A3017 RMK A01 T10281069  RH  073%=      5-min Rain = 0
KPD1 130855Z 01010KT M03/M07 A3017 RMK A01 T10281069  RH  074%=      5-min Rain = 0
KPD1 130856Z 02012KT M03/M07 A3017 RMK A01 T10281068  RH  074%=      5-min Rain = 0
KPD1 130857Z 02013KT M03/M07 A3018 RMK A01 T10281069  RH  074%=      5-min Rain = 0
KPD1 130858Z 01009KT M03/M07 A3018 RMK A01 T10281069  RH  074%=      5-min Rain = 0
KPD1 130859Z 02011G17KT M03/M07 A3018 RMK A01 T10291069  RH  074%=      5-min Rain = 0
KPD1 130900Z 02011KT M03/M07 A3018 RMK A01 T10291069  RH  074%=      5-min Rain = 0
KPD1 130901Z 01009KT M03/M07 A3018 RMK A01 T10291069  RH  074%=      5-min Rain = 0
KPD1 130902Z 01012KT M03/M07 A3018 RMK A01 T10301070  RH  074%=      5-min Rain = 0
KPD1 130903Z 01012KT M03/M07 A3018 RMK A01 T10301070  RH  074%=      5-min Rain = 0
KPD1 130904Z 00010KT M03/M07 A3018 RMK A01 T10301070  RH  074%=      5-min Rain = 0
KPD1 130905Z 01010KT M03/M07 A3018 RMK A01 T10301071  RH  074%=      5-min Rain = 0
KPD1 130906Z 00010KT M03/M07 A3018 RMK A01 T10301071  RH  074%=      5-min Rain = 0
KPD1 130907Z 01012KT M03/M07 A3018 RMK A01 T10311071  RH  073%=      5-min Rain = 0
KPD1 130908Z 01012KT M03/M07 A3018 RMK A01 T10311073  RH  073%=      5-min Rain = 0
KPD1 130909Z 01010KT M03/M07 A3018 RMK A01 T10311074  RH  072%=      5-min Rain = 0
KPD1 130910Z 01012KT M03/M07 A3018 RMK A01 T10311074  RH  072%=      5-min Rain = 0
KPD1 130911Z 00012KT M03/M07 A3018 RMK A01 T10311074  RH  072%=      5-min Rain = 0
KPD1 130912Z 01011KT M03/M08 A3018 RMK A01 T10321075  RH  072%=      5-min Rain = 0
KPD1 130913Z 00011KT M03/M08 A3018 RMK A01 T10321075  RH  072%=      5-min Rain = 0
KPD1 130914Z 01011KT M03/M08 A3018 RMK A01 T10321075  RH  072%=      5-min Rain = 0
KPD1 130915Z 02011KT M03/M08 A3018 RMK A01 T10321075  RH  072%=      5-min Rain = 0
KPD1 130916Z 01011KT M03/M08 A3018 RMK A01 T10321075  RH  072%=      5-min Rain = 0
KPD1 130917Z 02011KT M03/M08 A3018 RMK A01 T10321075  RH  072%=      5-min Rain = 0
KPD1 130918Z 02010KT M03/M08 A3018 RMK A01 T10331076  RH  072%=      5-min Rain = 0
KPD1 130919Z 00009G14KT M03/M08 A3018 RMK A01 T10331076  RH  072%=      5-min Rain = 0
KPD1 130920Z 00008KT M03/M08 A3018 RMK A01 T10331075  RH  072%=      5-min Rain = 0
KPD1 130921Z 02007KT M03/M08 A3019 RMK A01 T10331075  RH  073%=      5-min Rain = 0
KPD1 130922Z 01009KT M03/M07 A3019 RMK A01 T10331074  RH  073%=      5-min Rain = 0
KPD1 130923Z 01011KT M03/M08 A3019 RMK A01 T10331075  RH  073%=      5-min Rain = 0
KPD1 130924Z 02010KT M03/M08 A3019 RMK A01 T10331075  RH  073%=      5-min Rain = 0
KPD1 130925Z 00009KT M03/M08 A3019 RMK A01 T10341075  RH  073%=      5-min Rain = 0
KPD1 130926Z 01008G13KT M03/M08 A3019 RMK A01 T10341075  RH  073%=      5-min Rain = 0
KPD1 130927Z 01009KT M03/M08 A3019 RMK A01 T10331075  RH  073%=      5-min Rain = 0
KPD1 130928Z 01010KT M03/M08 A3019 RMK A01 T10341076  RH  073%=      5-min Rain = 0
KPD1 130929Z 01009KT M03/M08 A3019 RMK A01 T10341076  RH  073%=      5-min Rain = 0
KPD1 130930Z 00012KT M03/M08 A3019 RMK A01 T10341076  RH  073%=      5-min Rain = 0
KPD1 130931Z 01010KT M03/M08 A3019 RMK A01 T10341076  RH  073%=      5-min Rain = 0
KPD1 130932Z 00011KT M03/M08 A3019 RMK A01 T10341076  RH  073%=      5-min Rain = 0
KPD1 130933Z 01010KT M04/M08 A3019 RMK A01 T10351077  RH  073%=      5-min Rain = 0
KPD1 130934Z 02010KT M04/M08 A3019 RMK A01 T10351077  RH  072%=      5-min Rain = 0
KPD1 130935Z 01009KT M04/M08 A3019 RMK A01 T10351077  RH  072%=      5-min Rain = 0
KPD1 130936Z 01008KT M04/M08 A3019 RMK A01 T10351077  RH  073%=      5-min Rain = 0
KPD1 130937Z 02006KT M04/M08 A3019 RMK A01 T10351077  RH  073%=      5-min Rain = 0
KPD1 130938Z 01010KT M04/M08 A3019 RMK A01 T10351077  RH  073%=      5-min Rain = 0
KPD1 130939Z 01008KT M04/M08 A3019 RMK A01 T10351078  RH  072%=      5-min Rain = 0
KPD1 130940Z 01009KT M04/M08 A3019 RMK A01 T10351078  RH  072%=      5-min Rain = 0
KPD1 130941Z 01010KT M04/M08 A3019 RMK A01 T10361078  RH  072%=      5-min Rain = 0
KPD1 130942Z 02007KT M04/M08 A3019 RMK A01 T10361079  RH  072%=      5-min Rain = 0
KPD1 130943Z 03006KT M04/M08 A3019 RMK A01 T10361078  RH  072%=      5-min Rain = 0
KPD1 130944Z 02005KT M04/M08 A3019 RMK A01 T10361078  RH  072%=      5-min Rain = 0
KPD1 130945Z 01006KT M04/M08 A3019 RMK A01 T10361078  RH  072%=      5-min Rain = 0
KPD1 130946Z 02008KT M04/M08 A3019 RMK A01 T10361078  RH  073%=      5-min Rain = 0
KPD1 130947Z 00005KT M04/M08 A3019 RMK A01 T10361078  RH  072%=      5-min Rain = 0
KPD1 130948Z 01006KT M04/M08 A302 RMK A01 T10361078  RH  072%=      5-min Rain = 0
KPD1 130949Z 01008KT M04/M08 A302 RMK A01 T10361078  RH  072%=      5-min Rain = 0
KPD1 130950Z 01006KT M04/M08 A302 RMK A01 T10361078  RH  072%=      5-min Rain = 0
KPD1 130951Z 01005KT M04/M08 A302 RMK A01 T10361078  RH  073%=      5-min Rain = 0
KPD1 130952Z 00006KT M04/M08 A302 RMK A01 T10361077  RH  073%=      5-min Rain = 0
KPD1 130953Z 01005KT M04/M08 A302 RMK A01 T10361077  RH  073%=      5-min Rain = 0
KPD1 130954Z 02004KT M04/M08 A302 RMK A01 T10361076  RH  073%=      5-min Rain = 0
KPD1 130955Z 00006KT M04/M08 A302 RMK A01 T10361077  RH  074%=      5-min Rain = 0
KPD1 130956Z 36008KT M04/M08 A302 RMK A01 T10371077  RH  074%=      5-min Rain = 0
KPD1 130957Z 36007KT M04/M08 A302 RMK A01 T10371077  RH  074%=      5-min Rain = 0
KPD1 130958Z 00006KT M04/M08 A302 RMK A01 T10361077  RH  073%=      5-min Rain = 0
KPD1 130959Z 36009KT M04/M08 A302 RMK A01 T10371078  RH  073%=      5-min Rain = 0
KPD1 131000Z 01008KT M04/M08 A302 RMK A01 T10371078  RH  073%=      5-min Rain = 0
KPD1 131001Z 01008KT M04/M08 A302 RMK A01 T10371078  RH  073%=      5-min Rain = 0
KPD1 131002Z 01010KT M04/M08 A302 RMK A01 T10371078  RH  073%=      5-min Rain = 0
KPD1 131003Z 00008KT M04/M08 A3019 RMK A01 T10371078  RH  073%=      5-min Rain = 0
KPD1 131004Z 01010KT M04/M08 A3019 RMK A01 T10371078  RH  073%=      5-min Rain = 0
KPD1 131005Z 01009KT M04/M08 A302 RMK A01 T10371078  RH  073%=      5-min Rain = 0
KPD1 131006Z 00009KT M04/M08 A302 RMK A01 T10371078  RH  073%=      5-min Rain = 0
KPD1 131007Z 01007KT M04/M08 A302 RMK A01 T10371078  RH  074%=      5-min Rain = 0
KPD1 131008Z 01007KT M04/M08 A302 RMK A01 T10371077  RH  074%=      5-min Rain = 0
KPD1 131009Z 01007KT M04/M08 A302 RMK A01 T10371077  RH  074%=      5-min Rain = 0
KPD1 131010Z 01007KT M04/M08 A3019 RMK A01 T10381078  RH  074%=      5-min Rain = 0
KPD1 131011Z 03006KT M04/M08 A3019 RMK A01 T10381078  RH  074%=      5-min Rain = 0
KPD1 131012Z 02006KT M04/M08 A3019 RMK A01 T10381078  RH  074%=      5-min Rain = 0
KPD1 131013Z 01007KT M04/M08 A3019 RMK A01 T10381078  RH  074%=      5-min Rain = 0
KPD1 131014Z 01007KT M04/M08 A3019 RMK A01 T10381078  RH  074%=      5-min Rain = 0
KPD1 131015Z 02006KT M04/M08 A3019 RMK A01 T10391079  RH  074%=      5-min Rain = 0
KPD1 131016Z 01007KT M04/M08 A3019 RMK A01 T10391078  RH  074%=      5-min Rain = 0
KPD1 131017Z 01008KT M04/M08 A3019 RMK A01 T10391079  RH  074%=      5-min Rain = 0
KPD1 131018Z 02007KT M04/M08 A3019 RMK A01 T10391078  RH  074%=      5-min Rain = 0
KPD1 131019Z 01008KT M04/M08 A3019 RMK A01 T10391078  RH  074%=      5-min Rain = 0
KPD1 131020Z 01010KT M04/M08 A3019 RMK A01 T10391078  RH  074%=      5-min Rain = 0
KPD1 131021Z 02009KT M04/M08 A3019 RMK A01 T10391079  RH  074%=      5-min Rain = 0
KPD1 131022Z 02008KT M04/M08 A3019 RMK A01 T10401079  RH  074%=      5-min Rain = 0
KPD1 131023Z 01008KT M04/M08 A3019 RMK A01 T10401079  RH  074%=      5-min Rain = 0
KPD1 131024Z 01008G13KT M04/M08 A3019 RMK A01 T10401079  RH  074%=      5-min Rain = 0
KPD1 131025Z 01010KT M04/M08 A3019 RMK A01 T10401078  RH  075%=      5-min Rain = 0
KPD1 131026Z 02009KT M04/M08 A3019 RMK A01 T10401079  RH  074%=      5-min Rain = 0
KPD1 131027Z 01008KT M04/M08 A3019 RMK A01 T10401079  RH  074%=      5-min Rain = 0
KPD1 131028Z 01009KT M04/M08 A3019 RMK A01 T10401078  RH  075%=      5-min Rain = 0
KPD1 131029Z 01008KT M04/M08 A3019 RMK A01 T10411079  RH  075%=      5-min Rain = 0
KPD1 131030Z 02009KT M04/M08 A3019 RMK A01 T10411079  RH  075%=      5-min Rain = 0
KPD1 131031Z 02008KT M04/M08 A3019 RMK A01 T10411079  RH  075%=      5-min Rain = 0
KPD1 131032Z 02008KT M04/M08 A3019 RMK A01 T10411079  RH  075%=      5-min Rain = 0
KPD1 131033Z 36008KT M04/M08 A3019 RMK A01 T10411079  RH  075%=      5-min Rain = 0
KPD1 131034Z 01008KT M04/M08 A3019 RMK A01 T10411079  RH  075%=      5-min Rain = 0
KPD1 131035Z 02007KT M04/M08 A3019 RMK A01 T10411079  RH  075%=      5-min Rain = 0
KPD1 131036Z 01008KT M04/M08 A3019 RMK A01 T10411079  RH  075%=      5-min Rain = 0
KPD1 131037Z 02006KT M04/M08 A3019 RMK A01 T10411079  RH  075%=      5-min Rain = 0
KPD1 131038Z 01008KT M04/M08 A3019 RMK A01 T10421079  RH  075%=      5-min Rain = 0
KPD1 131039Z 02008KT M04/M08 A3019 RMK A01 T10421079  RH  075%=      5-min Rain = 0
KPD1 131040Z 03006KT M04/M08 A3019 RMK A01 T10421080  RH  075%=      5-min Rain = 0
KPD1 131041Z 04004KT M04/M08 A3019 RMK A01 T10421079  RH  075%=      5-min Rain = 0
KPD1 131042Z 04005KT M04/M08 A3019 RMK A01 T10421079  RH  075%=      5-min Rain = 0
KPD1 131043Z 02005KT M04/M08 A3019 RMK A01 T10421079  RH  076%=      5-min Rain = 0
KPD1 131044Z 02006KT M04/M08 A3019 RMK A01 T10421079  RH  076%=      5-min Rain = 0
KPD1 131045Z 02004KT M04/M08 A3019 RMK A01 T10421078  RH  076%=      5-min Rain = 0
KPD1 131046Z 04004KT M04/M08 A3019 RMK A01 T10421079  RH  076%=      5-min Rain = 0
KPD1 131047Z 03004KT M04/M08 A3019 RMK A01 T10431078  RH  076%=      5-min Rain = 0
KPD1 131048Z 01004KT M04/M08 A3019 RMK A01 T10431078  RH  076%=      5-min Rain = 0
KPD1 131049Z 02005KT M04/M08 A3019 RMK A01 T10421078  RH  076%=      5-min Rain = 0
KPD1 131050Z 01006KT M04/M08 A3019 RMK A01 T10421078  RH  076%=      5-min Rain = 0
KPD1 131051Z 01005KT M04/M08 A3019 RMK A01 T10421078  RH  076%=      5-min Rain = 0
KPD1 131052Z 03004KT M04/M08 A3019 RMK A01 T10431078  RH  076%=      5-min Rain = 0
KPD1 131053Z 02005KT M04/M08 A3019 RMK A01 T10431078  RH  077%=      5-min Rain = 0
KPD1 131054Z 02005KT M04/M08 A3019 RMK A01 T10431077  RH  077%=      5-min Rain = 0
KPD1 131055Z 01005KT M04/M08 A3019 RMK A01 T10431078  RH  077%=      5-min Rain = 0
KPD1 131056Z 02006KT M04/M08 A3019 RMK A01 T10431078  RH  077%=      5-min Rain = 0
KPD1 131057Z 03005KT M04/M08 A3019 RMK A01 T10431078  RH  077%=      5-min Rain = 0
KPD1 131058Z 03007KT M04/M08 A3019 RMK A01 T10431078  RH  077%=      5-min Rain = 0
KPD1 131059Z 03006KT M04/M08 A3019 RMK A01 T10431078  RH  077%=      5-min Rain = 0
KPD1 131100Z 03007KT M04/M08 A3019 RMK A01 T10431077  RH  077%=      5-min Rain = 0
KPD1 131101Z 03005KT M04/M08 A3019 RMK A01 T10431077  RH  077%=      5-min Rain = 0
KPD1 131102Z 03003KT M04/M08 A3019 RMK A01 T10431078  RH  077%=      5-min Rain = 0
KPD1 131103Z 03005KT M04/M08 A3019 RMK A01 T10431077  RH  077%=      5-min Rain = 0
KPD1 131104Z 02004KT M04/M08 A3019 RMK A01 T10431077  RH  077%=      5-min Rain = 0
KPD1 131105Z 00004KT M04/M08 A3019 RMK A01 T10431077  RH  077%=      5-min Rain = 0
KPD1 131106Z 00008KT M04/M08 A3019 RMK A01 T10431077  RH  077%=      5-min Rain = 0
KPD1 131107Z 01007KT M04/M08 A3019 RMK A01 T10441078  RH  077%=      5-min Rain = 0
KPD1 131108Z 00006KT M04/M08 A3019 RMK A01 T10441078  RH  077%=      5-min Rain = 0
KPD1 131109Z 01008KT M04/M08 A3019 RMK A01 T10441078  RH  077%=      5-min Rain = 0
KPD1 131110Z 01006KT M04/M08 A3019 RMK A01 T10441078  RH  077%=      5-min Rain = 0
KPD1 131111Z 01006KT M04/M08 A3019 RMK A01 T10441078  RH  077%=      5-min Rain = 0
KPD1 131112Z 02006KT M04/M08 A3019 RMK A01 T10441078  RH  077%=      5-min Rain = 0
KPD1 131113Z 01007KT M04/M08 A3019 RMK A01 T10441078  RH  077%=      5-min Rain = 0
KPD1 131114Z 01008KT M05/M08 A3019 RMK A01 T10451078  RH  077%=      5-min Rain = 0
KPD1 131115Z 01006KT M05/M08 A3019 RMK A01 T10451079  RH  077%=      5-min Rain = 0
KPD1 131116Z 01007KT M05/M08 A3019 RMK A01 T10451079  RH  077%=      5-min Rain = 0
KPD1 131117Z 00008KT M05/M08 A3019 RMK A01 T10451079  RH  077%=      5-min Rain = 0
KPD1 131118Z 01008KT M05/M08 A3019 RMK A01 T10451079  RH  077%=      5-min Rain = 0
KPD1 131119Z 36007KT M05/M08 A3019 RMK A01 T10461079  RH  077%=      5-min Rain = 0
KPD1 131120Z 00007KT M05/M08 A3019 RMK A01 T10461079  RH  078%=      5-min Rain = 0
KPD1 131121Z 00007KT M05/M08 A3019 RMK A01 T10461079  RH  078%=      5-min Rain = 0
KPD1 131122Z 02006KT M05/M08 A3019 RMK A01 T10461079  RH  078%=      5-min Rain = 0
KPD1 131123Z 01008KT M05/M08 A3019 RMK A01 T10461078  RH  078%=      5-min Rain = 0
KPD1 131124Z 02010KT M05/M08 A3019 RMK A01 T10461079  RH  078%=      5-min Rain = 0
KPD1 131125Z 01008KT M05/M08 A3019 RMK A01 T10461080  RH  077%=      5-min Rain = 0
KPD1 131126Z 02008KT M05/M08 A3019 RMK A01 T10461080  RH  077%=      5-min Rain = 0
KPD1 131127Z 01008KT M05/M08 A3019 RMK A01 T10471080  RH  078%=      5-min Rain = 0
KPD1 131128Z 01008KT M05/M08 A302 RMK A01 T10471080  RH  078%=      5-min Rain = 0
KPD1 131129Z 00009KT M05/M08 A302 RMK A01 T10471080  RH  078%=      5-min Rain = 0
KPD1 131130Z 02008KT M05/M08 A3019 RMK A01 T10471081  RH  077%=      5-min Rain = 0
KPD1 131131Z 02009KT M05/M08 A3019 RMK A01 T10471081  RH  077%=      5-min Rain = 0
KPD1 131132Z 01009KT M05/M08 A3019 RMK A01 T10471081  RH  077%=      5-min Rain = 0
KPD1 131133Z 01009KT M05/M08 A3019 RMK A01 T10481082  RH  077%=      5-min Rain = 0
KPD1 131134Z 01008KT M05/M08 A3019 RMK A01 T10481082  RH  077%=      5-min Rain = 0
KPD1 131135Z 01009KT M05/M08 A3019 RMK A01 T10481082  RH  077%=      5-min Rain = 0
KPD1 131136Z 01009KT M05/M08 A3019 RMK A01 T10481082  RH  077%=      5-min Rain = 0
KPD1 131137Z 01009KT M05/M08 A302 RMK A01 T10481083  RH  077%=      5-min Rain = 0
KPD1 131138Z 01010KT M05/M08 A302 RMK A01 T10491083  RH  077%=      5-min Rain = 0
KPD1 131139Z 36008KT M05/M08 A302 RMK A01 T10491083  RH  077%=      5-min Rain = 0
KPD1 131140Z 36008KT M05/M08 A302 RMK A01 T10491083  RH  077%=      5-min Rain = 0
KPD1 131141Z 01009KT M05/M08 A302 RMK A01 T10491083  RH  077%=      5-min Rain = 0
KPD1 131142Z 01006KT M05/M08 A302 RMK A01 T10491084  RH  077%=      5-min Rain = 0
KPD1 131143Z 00007KT M05/M08 A302 RMK A01 T10491084  RH  077%=      5-min Rain = 0
KPD1 131144Z 01008KT M05/M08 A302 RMK A01 T10491083  RH  077%=      5-min Rain = 0
KPD1 131145Z 00009KT M05/M08 A302 RMK A01 T10501084  RH  077%=      5-min Rain = 0
KPD1 131146Z 00009KT M05/M08 A302 RMK A01 T10501084  RH  077%=      5-min Rain = 0
KPD1 131147Z 01009KT M05/M08 A302 RMK A01 T10501084  RH  077%=      5-min Rain = 0
KPD1 131148Z 00010KT M05/M08 A302 RMK A01 T10501084  RH  077%=      5-min Rain = 0
KPD1 131149Z 01006KT M05/M09 A302 RMK A01 T10501085  RH  077%=      5-min Rain = 0
KPD1 131150Z 00007KT M05/M09 A302 RMK A01 T10511085  RH  077%=      5-min Rain = 0
KPD1 131151Z 00008KT M05/M08 A302 RMK A01 T10501084  RH  077%=      5-min Rain = 0
KPD1 131152Z 00007KT M05/M08 A302 RMK A01 T10511084  RH  077%=      5-min Rain = 0
KPD1 131153Z 00008KT M05/M09 A302 RMK A01 T10511085  RH  077%=      5-min Rain = 0
KPD1 131154Z 01008KT M05/M09 A302 RMK A01 T10511085  RH  077%=      5-min Rain = 0
KPD1 131155Z 01007KT M05/M09 A302 RMK A01 T10511085  RH  077%=      5-min Rain = 0
KPD1 131156Z 36007KT M05/M09 A302 RMK A01 T10511085  RH  077%=      5-min Rain = 0
KPD1 131157Z 01009KT M05/M09 A302 RMK A01 T10521086  RH  077%=      5-min Rain = 0
KPD1 131158Z 00006KT M05/M09 A302 RMK A01 T10521086  RH  077%=      5-min Rain = 0
KPD1 131159Z 00008KT M05/M09 A302 RMK A01 T10521086  RH  077%=      5-min Rain = 0
KPD1 131200Z 01008KT M05/M09 A302 RMK A01 T10521086  RH  077%=      5-min Rain = 0
KPD1 131201Z 01008KT M05/M09 A302 RMK A01 T10531086  RH  077%=      5-min Rain = 0
KPD1 131202Z 00007KT M05/M09 A302 RMK A01 T10531086  RH  077%=      5-min Rain = 0
KPD1 131203Z 01005KT M05/M09 A302 RMK A01 T10531086  RH  077%=      5-min Rain = 0
KPD1 131204Z 01007KT M05/M09 A302 RMK A01 T10531086  RH  077%=      5-min Rain = 0
KPD1 131205Z 01007KT M05/M09 A302 RMK A01 T10531087  RH  077%=      5-min Rain = 0
KPD1 131206Z 01009KT M05/M09 A302 RMK A01 T10531086  RH  078%=      5-min Rain = 0
KPD1 131207Z 02008KT M05/M09 A302 RMK A01 T10541087  RH  078%=      5-min Rain = 0
KPD1 131208Z 36007KT M05/M09 A302 RMK A01 T10541087  RH  078%=      5-min Rain = 0
KPD1 131209Z 03008KT M05/M09 A302 RMK A01 T10541086  RH  078%=      5-min Rain = 0
KPD1 131210Z 01005KT M05/M09 A302 RMK A01 T10541087  RH  078%=      5-min Rain = 0
KPD1 131211Z 01007KT M05/M09 A302 RMK A01 T10541087  RH  078%=      5-min Rain = 0
KPD1 131212Z 01009KT M06/M09 A302 RMK A01 T10551087  RH  078%=      5-min Rain = 0
KPD1 131213Z 02008KT M06/M09 A302 RMK A01 T10551087  RH  078%=      5-min Rain = 0
KPD1 131214Z 02008KT M06/M09 A302 RMK A01 T10551087  RH  078%=      5-min Rain = 0
KPD1 131215Z 03007KT M06/M09 A302 RMK A01 T10551087  RH  078%=      5-min Rain = 0
KPD1 131216Z 02008KT M06/M09 A302 RMK A01 T10551087  RH  078%=      5-min Rain = 0
KPD1 131217Z 01008KT M06/M09 A302 RMK A01 T10551087  RH  078%=      5-min Rain = 0
KPD1 131218Z 01006KT M06/M09 A302 RMK A01 T10551086  RH  079%=      5-min Rain = 0
KPD1 131219Z 01005KT M06/M09 A302 RMK A01 T10551086  RH  079%=      5-min Rain = 0
KPD1 131220Z 01007KT M06/M09 A302 RMK A01 T10551085  RH  079%=      5-min Rain = 0
KPD1 131221Z 01007KT M06/M09 A302 RMK A01 T10551085  RH  079%=      5-min Rain = 0
KPD1 131222Z 01006KT M06/M09 A302 RMK A01 T10551085  RH  079%=      5-min Rain = 0
KPD1 131223Z 02005KT M06/M09 A302 RMK A01 T10551085  RH  079%=      5-min Rain = 0
KPD1 131224Z 01005KT M06/M09 A302 RMK A01 T10551085  RH  079%=      5-min Rain = 0
KPD1 131225Z 01005KT M06/M09 A302 RMK A01 T10551085  RH  079%=      5-min Rain = 0
KPD1 131226Z 01004KT M06/M08 A302 RMK A01 T10551084  RH  080%=      5-min Rain = 0
KPD1 131227Z 01006KT M06/M08 A302 RMK A01 T10551084  RH  080%=      5-min Rain = 0
KPD1 131228Z 01008KT M05/M08 A302 RMK A01 T10541084  RH  080%=      5-min Rain = 0
KPD1 131229Z 01007KT M06/M08 A302 RMK A01 T10551084  RH  080%=      5-min Rain = 0
KPD1 131230Z 01008KT M06/M08 A302 RMK A01 T10551084  RH  080%=      5-min Rain = 0
KPD1 131231Z 01006KT M06/M08 A302 RMK A01 T10551084  RH  080%=      5-min Rain = 0
KPD1 131232Z 01006KT M06/M08 A302 RMK A01 T10551084  RH  080%=      5-min Rain = 0
KPD1 131233Z 01006KT M06/M08 A3021 RMK A01 T10551084  RH  080%=      5-min Rain = 0
KPD1 131234Z 01004KT M06/M09 A3021 RMK A01 T10551085  RH  080%=      5-min Rain = 0
KPD1 131235Z 00006KT M06/M08 A3021 RMK A01 T10551084  RH  080%=      5-min Rain = 0
KPD1 131236Z 01006KT M06/M08 A3021 RMK A01 T10551084  RH  080%=      5-min Rain = 0
KPD1 131237Z 01005KT M06/M09 A3021 RMK A01 T10551085  RH  080%=      5-min Rain = 0
KPD1 131238Z 01004KT M06/M09 A3021 RMK A01 T10551085  RH  080%=      5-min Rain = 0
KPD1 131239Z 02004KT M06/M09 A3021 RMK A01 T10551085  RH  080%=      5-min Rain = 0
KPD1 131240Z 01006KT M06/M09 A3021 RMK A01 T10561085  RH  080%=      5-min Rain = 0
KPD1 131241Z 01005KT M06/M09 A3021 RMK A01 T10561085  RH  080%=      5-min Rain = 0
KPD1 131242Z 01005KT M06/M09 A3021 RMK A01 T10561085  RH  080%=      5-min Rain = 0
KPD1 131243Z 00005KT M06/M09 A3021 RMK A01 T10561085  RH  080%=      5-min Rain = 0
KPD1 131244Z 01005KT M06/M09 A3021 RMK A01 T10561085  RH  080%=      5-min Rain = 0
KPD1 131245Z 01003KT M06/M09 A3021 RMK A01 T10561085  RH  080%=      5-min Rain = 0
KPD1 131246Z 02006KT M06/M09 A3021 RMK A01 T10561085  RH  081%=      5-min Rain = 0
KPD1 131247Z 01005KT M06/M09 A3021 RMK A01 T10561085  RH  081%=      5-min Rain = 0
KPD1 131248Z 02005KT M06/M09 A3021 RMK A01 T10571085  RH  081%=      5-min Rain = 0
KPD1 131249Z 02006KT M06/M09 A3021 RMK A01 T10561085  RH  081%=      5-min Rain = 0
KPD1 131250Z 02006KT M06/M09 A302 RMK A01 T10571085  RH  081%=      5-min Rain = 0
KPD1 131251Z 00008KT M06/M09 A302 RMK A01 T10571085  RH  081%=      5-min Rain = 0
KPD1 131252Z 01006KT M06/M09 A302 RMK A01 T10571085  RH  080%=      5-min Rain = 0
KPD1 131253Z 02006KT M06/M09 A302 RMK A01 T10571085  RH  081%=      5-min Rain = 0
KPD1 131254Z 02005KT M06/M09 A302 RMK A01 T10571085  RH  081%=      5-min Rain = 0
KPD1 131255Z 05004KT M06/M09 A3021 RMK A01 T10581086  RH  081%=      5-min Rain = 0
KPD1 131256Z 02003KT M06/M09 A3021 RMK A01 T10581086  RH  081%=      5-min Rain = 0
KPD1 131257Z 03003KT M06/M09 A3021 RMK A01 T10571085  RH  081%=      5-min Rain = 0
KPD1 131258Z 01003KT M06/M09 A3021 RMK A01 T10571085  RH  081%=      5-min Rain = 0
KPD1 131259Z 01002KT M06/M09 A3021 RMK A01 T10571085  RH  081%=      5-min Rain = 0
KPD1 131300Z 01002KT M06/M09 A3021 RMK A01 T10581085  RH  081%=      5-min Rain = 0
KPD1 131301Z 02002KT M06/M09 A3021 RMK A01 T10581085  RH  081%=      5-min Rain = 0
KPD1 131302Z 03002KT M06/M09 A3021 RMK A01 T10581085  RH  081%=      5-min Rain = 0
KPD1 131303Z 03003KT M06/M09 A3021 RMK A01 T10581085  RH  081%=      5-min Rain = 0
KPD1 131304Z 04005KT M06/M09 A3021 RMK A01 T10581085  RH  081%=      5-min Rain = 0
KPD1 131305Z 04006KT M06/M09 A3021 RMK A01 T10581086  RH  081%=      5-min Rain = 0
KPD1 131306Z 03006KT M06/M09 A3021 RMK A01 T10591086  RH  081%=      5-min Rain = 0
KPD1 131307Z 04006KT M06/M09 A3021 RMK A01 T10591087  RH  081%=      5-min Rain = 0
KPD1 131308Z 03006KT M06/M09 A3021 RMK A01 T10591087  RH  081%=      5-min Rain = 0
KPD1 131309Z 04005KT M06/M09 A3021 RMK A01 T10591087  RH  081%=      5-min Rain = 0
KPD1 131310Z 04004KT M06/M09 A3021 RMK A01 T10591087  RH  081%=      5-min Rain = 0
KPD1 131311Z 03003KT M06/M09 A3022 RMK A01 T10591086  RH  081%=      5-min Rain = 0
KPD1 131312Z 04004KT M06/M09 A3022 RMK A01 T10591086  RH  081%=      5-min Rain = 0
KPD1 131313Z 04004KT M06/M09 A3022 RMK A01 T10591086  RH  081%=      5-min Rain = 0
KPD1 131314Z 03004KT M06/M09 A3022 RMK A01 T10601087  RH  081%=      5-min Rain = 0
KPD1 131315Z 02005KT M06/M09 A3022 RMK A01 T10601086  RH  082%=      5-min Rain = 0
KPD1 131316Z 04005KT M06/M09 A3022 RMK A01 T10601086  RH  082%=      5-min Rain = 0
KPD1 131317Z 03005KT M06/M09 A3022 RMK A01 T10601086  RH  082%=      5-min Rain = 0
KPD1 131318Z 03004KT M06/M09 A3022 RMK A01 T10601086  RH  082%=      5-min Rain = 0
KPD1 131319Z 03004KT M06/M09 A3022 RMK A01 T10601086  RH  082%=      5-min Rain = 0
KPD1 131320Z 03003KT M06/M09 A3022 RMK A01 T10601086  RH  082%=      5-min Rain = 0
KPD1 131321Z 05003KT M06/M09 A3022 RMK A01 T10601086  RH  082%=      5-min Rain = 0
KPD1 131322Z 04003KT M06/M09 A3022 RMK A01 T10601085  RH  083%=      5-min Rain = 0
KPD1 131323Z 03003KT M06/M09 A3022 RMK A01 T10601085  RH  083%=      5-min Rain = 0
KPD1 131324Z 04003KT M06/M09 A3022 RMK A01 T10601085  RH  083%=      5-min Rain = 0
KPD1 131325Z 04003KT M06/M09 A3022 RMK A01 T10601085  RH  083%=      5-min Rain = 0
KPD1 131326Z 05003KT M06/M09 A3022 RMK A01 T10601085  RH  083%=      5-min Rain = 0
KPD1 131327Z 05003KT M06/M09 A3022 RMK A01 T10601085  RH  083%=      5-min Rain = 0
KPD1 131328Z 07002KT M06/M09 A3022 RMK A01 T10601085  RH  083%=      5-min Rain = 0
KPD1 131329Z 07003KT M06/M09 A3023 RMK A01 T10601085  RH  083%=      5-min Rain = 0
KPD1 131330Z 05004KT M06/M09 A3023 RMK A01 T10601085  RH  083%=      5-min Rain = 0
KPD1 131331Z 04004KT M06/M09 A3023 RMK A01 T10601085  RH  082%=      5-min Rain = 0
KPD1 131332Z 06005KT M06/M09 A3023 RMK A01 T10611086  RH  082%=      5-min Rain = 0
KPD1 131333Z 04004KT M06/M09 A3023 RMK A01 T10611087  RH  082%=      5-min Rain = 0
KPD1 131334Z 05003KT M06/M09 A3023 RMK A01 T10611087  RH  082%=      5-min Rain = 0
KPD1 131335Z 07003KT M06/M09 A3023 RMK A01 T10611087  RH  082%=      5-min Rain = 0
KPD1 131336Z 07004KT M06/M09 A3023 RMK A01 T10611087  RH  082%=      5-min Rain = 0
KPD1 131337Z 07003KT M06/M09 A3023 RMK A01 T10611086  RH  082%=      5-min Rain = 0
KPD1 131338Z 06003KT M06/M09 A3023 RMK A01 T10611086  RH  083%=      5-min Rain = 0
KPD1 131339Z 08002KT M06/M09 A3023 RMK A01 T10611086  RH  083%=      5-min Rain = 0
KPD1 131340Z 06004KT M06/M09 A3023 RMK A01 T10611086  RH  083%=      5-min Rain = 0
KPD1 131341Z 06002KT M06/M09 A3023 RMK A01 T10611086  RH  083%=      5-min Rain = 0
KPD1 131342Z 06002KT M06/M09 A3023 RMK A01 T10611086  RH  083%=      5-min Rain = 0
KPD1 131343Z 05003KT M06/M09 A3023 RMK A01 T10611085  RH  083%=      5-min Rain = 0
KPD1 131344Z 07003KT M06/M09 A3023 RMK A01 T10611085  RH  083%=      5-min Rain = 0
KPD1 131345Z 09003KT M06/M09 A3023 RMK A01 T10611085  RH  083%=      5-min Rain = 0
KPD1 131346Z 08003KT M06/M09 A3023 RMK A01 T10611085  RH  083%=      5-min Rain = 0
KPD1 131347Z 07002KT M06/M09 A3023 RMK A01 T10611085  RH  083%=      5-min Rain = 0
KPD1 131348Z 07002KT M06/M09 A3023 RMK A01 T10611085  RH  083%=      5-min Rain = 0
KPD1 131349Z 08003KT M06/M09 A3024 RMK A01 T10601085  RH  083%=      5-min Rain = 0
KPD1 131350Z 06002KT M06/M09 A3024 RMK A01 T10611085  RH  083%=      5-min Rain = 0
KPD1 131351Z 07002KT M06/M08 A3024 RMK A01 T10601084  RH  083%=      5-min Rain = 0
KPD1 131352Z 08002KT M06/M08 A3024 RMK A01 T10601084  RH  083%=      5-min Rain = 0
KPD1 131353Z 08002KT M06/M09 A3024 RMK A01 T10601085  RH  083%=      5-min Rain = 0
KPD1 131354Z 07002KT M06/M09 A3024 RMK A01 T10601085  RH  083%=      5-min Rain = 0
KPD1 131355Z 06002KT M06/M09 A3024 RMK A01 T10601085  RH  083%=      5-min Rain = 0
KPD1 131356Z 09002KT M06/M09 A3024 RMK A01 T10601085  RH  083%=      5-min Rain = 0
KPD1 131357Z 08003KT M06/M09 A3024 RMK A01 T10601085  RH  083%=      5-min Rain = 0
KPD1 131358Z 09003KT M06/M08 A3024 RMK A01 T10601084  RH  083%=      5-min Rain = 0
KPD1 131359Z 09003KT M06/M08 A3024 RMK A01 T10601084  RH  083%=      5-min Rain = 0
KPD1 131400Z 09003KT M06/M08 A3024 RMK A01 T10591083  RH  083%=      5-min Rain = 0
KPD1 131401Z 10004KT M06/M08 A3024 RMK A01 T10591083  RH  083%=      5-min Rain = 0
KPD1 131402Z 10003KT M06/M08 A3024 RMK A01 T10591083  RH  083%=      5-min Rain = 0
KPD1 131403Z 09005KT M06/M08 A3024 RMK A01 T10591084  RH  083%=      5-min Rain = 0
KPD1 131404Z 09005KT M06/M08 A3024 RMK A01 T10591084  RH  083%=      5-min Rain = 0
KPD1 131405Z 08005KT M06/M09 A3024 RMK A01 T10601085  RH  082%=      5-min Rain = 0
KPD1 131406Z 08005KT M06/M09 A3024 RMK A01 T10601086  RH  082%=      5-min Rain = 0
KPD1 131407Z 08005KT M06/M09 A3024 RMK A01 T10601087  RH  082%=      5-min Rain = 0
KPD1 131408Z 08006KT M06/M09 A3024 RMK A01 T10601087  RH  082%=      5-min Rain = 0
KPD1 131409Z 09006KT M06/M09 A3024 RMK A01 T10601086  RH  082%=      5-min Rain = 0
KPD1 131410Z 08006KT M06/M09 A3024 RMK A01 T10601086  RH  082%=      5-min Rain = 0
KPD1 131411Z 07005KT M06/M09 A3024 RMK A01 T10601087  RH  082%=      5-min Rain = 0
KPD1 131412Z 06003KT M06/M09 A3024 RMK A01 T10601087  RH  082%=      5-min Rain = 0
KPD1 131413Z 07004KT M06/M09 A3024 RMK A01 T10601086  RH  082%=      5-min Rain = 0
KPD1 131414Z 06004KT M06/M09 A3024 RMK A01 T10591085  RH  082%=      5-min Rain = 0
KPD1 131415Z 06005KT M06/M09 A3024 RMK A01 T10601086  RH  082%=      5-min Rain = 0
KPD1 131416Z 07005KT M06/M09 A3025 RMK A01 T10601086  RH  082%=      5-min Rain = 0
KPD1 131417Z 06005KT M06/M09 A3025 RMK A01 T10601086  RH  082%=      5-min Rain = 0
KPD1 131418Z 07003KT M06/M09 A3025 RMK A01 T10601087  RH  082%=      5-min Rain = 0
KPD1 131419Z 07003KT M06/M09 A3025 RMK A01 T10601087  RH  082%=      5-min Rain = 0
KPD1 131420Z 07003KT M06/M09 A3025 RMK A01 T10601086  RH  082%=      5-min Rain = 0
KPD1 131421Z 09004KT M06/M09 A3025 RMK A01 T10601086  RH  082%=      5-min Rain = 0
KPD1 131422Z 08004KT M06/M09 A3025 RMK A01 T10601085  RH  082%=      5-min Rain = 0
KPD1 131423Z 08004KT M06/M09 A3025 RMK A01 T10591085  RH  082%=      5-min Rain = 0
KPD1 131424Z 06003KT M06/M09 A3025 RMK A01 T10591085  RH  082%=      5-min Rain = 0
KPD1 131425Z 06003KT M06/M09 A3025 RMK A01 T10591086  RH  082%=      5-min Rain = 0
KPD1 131426Z 07003KT M06/M09 A3025 RMK A01 T10591086  RH  082%=      5-min Rain = 0
KPD1 131427Z 07004KT M06/M09 A3025 RMK A01 T10591085  RH  082%=      5-min Rain = 0
KPD1 131428Z 07004KT M06/M09 A3025 RMK A01 T10591085  RH  082%=      5-min Rain = 0
KPD1 131429Z 06002KT M06/M09 A3024 RMK A01 T10591085  RH  082%=      5-min Rain = 0
KPD1 131430Z 07005KT M06/M08 A3024 RMK A01 T10581084  RH  082%=      5-min Rain = 0
KPD1 131431Z 07004KT M06/M09 A3024 RMK A01 T10581085  RH  082%=      5-min Rain = 0
KPD1 131432Z 07003KT M06/M09 A3024 RMK A01 T10591085  RH  082%=      5-min Rain = 0
KPD1 131433Z 05003KT M06/M09 A3024 RMK A01 T10591085  RH  082%=      5-min Rain = 0
KPD1 131434Z 06004KT M06/M09 A3025 RMK A01 T10591085  RH  082%=      5-min Rain = 0
KPD1 131435Z 07003KT M06/M08 A3025 RMK A01 T10591084  RH  082%=      5-min Rain = 0
KPD1 131436Z 07002KT M06/M08 A3025 RMK A01 T10581083  RH  083%=      5-min Rain = 0
KPD1 131437Z 09003KT M06/M08 A3025 RMK A01 T10581082  RH  083%=      5-min Rain = 0
KPD1 131438Z 09004KT M06/M08 A3025 RMK A01 T10571082  RH  083%=      5-min Rain = 0
KPD1 131439Z 08004KT M06/M08 A3025 RMK A01 T10581082  RH  083%=      5-min Rain = 0
KPD1 131440Z 07003KT M06/M08 A3025 RMK A01 T10571082  RH  083%=      5-min Rain = 0
KPD1 131441Z 06003KT M06/M08 A3025 RMK A01 T10581082  RH  083%=      5-min Rain = 0
KPD1 131442Z 06003KT M06/M08 A3025 RMK A01 T10571081  RH  084%=      5-min Rain = 0
KPD1 131443Z 05003KT M06/M08 A3025 RMK A01 T10571080  RH  084%=      5-min Rain = 0
KPD1 131444Z 06003KT M06/M08 A3025 RMK A01 T10571081  RH  084%=      5-min Rain = 0
KPD1 131445Z 07003KT M06/M08 A3025 RMK A01 T10571081  RH  083%=      5-min Rain = 0
KPD1 131446Z 04002KT M06/M08 A3025 RMK A01 T10581081  RH  083%=      5-min Rain = 0
KPD1 131447Z 03004KT M06/M08 A3025 RMK A01 T10571081  RH  084%=      5-min Rain = 0
KPD1 131448Z 07003KT M06/M08 A3025 RMK A01 T10571081  RH  084%=      5-min Rain = 0
KPD1 131449Z 08004KT M06/M08 A3025 RMK A01 T10571081  RH  083%=      5-min Rain = 0
KPD1 131450Z 07005KT M06/M08 A3025 RMK A01 T10571081  RH  083%=      5-min Rain = 0
KPD1 131451Z 06005KT M06/M08 A3025 RMK A01 T10571081  RH  083%=      5-min Rain = 0
KPD1 131452Z 06004KT M06/M08 A3025 RMK A01 T10571081  RH  083%=      5-min Rain = 0
KPD1 131453Z 05003KT M06/M08 A3025 RMK A01 T10571081  RH  083%=      5-min Rain = 0
KPD1 131454Z 06005KT M06/M08 A3025 RMK A01 T10571081  RH  083%=      5-min Rain = 0
KPD1 131455Z 06004KT M06/M08 A3025 RMK A01 T10571082  RH  083%=      5-min Rain = 0
KPD1 131456Z 06005KT M06/M08 A3025 RMK A01 T10571082  RH  083%=      5-min Rain = 0
KPD1 131457Z 05004KT M06/M08 A3025 RMK A01 T10571082  RH  082%=      5-min Rain = 0
KPD1 131458Z 05003KT M06/M08 A3025 RMK A01 T10571082  RH  082%=      5-min Rain = 0
KPD1 131459Z 05003KT M06/M08 A3025 RMK A01 T10571083  RH  082%=      5-min Rain = 0
KPD1 131500Z 03003KT M06/M08 A3025 RMK A01 T10571083  RH  082%=      5-min Rain = 0
KPD1 131501Z 04003KT M06/M08 A3025 RMK A01 T10571083  RH  082%=      5-min Rain = 0
KPD1 131502Z 06003KT M06/M08 A3025 RMK A01 T10571083  RH  082%=      5-min Rain = 0
KPD1 131503Z 05004KT M06/M08 A3025 RMK A01 T10571083  RH  082%=      5-min Rain = 0
KPD1 131504Z 05002KT M06/M08 A3026 RMK A01 T10571083  RH  082%=      5-min Rain = 0
KPD1 131505Z 04003KT M06/M08 A3026 RMK A01 T10561082  RH  082%=      5-min Rain = 0
KPD1 131506Z 03003KT M06/M08 A3026 RMK A01 T10551081  RH  082%=      5-min Rain = 0
KPD1 131507Z 04003KT M06/M08 A3026 RMK A01 T10551081  RH  082%=      5-min Rain = 0
KPD1 131508Z 05003KT M06/M08 A3026 RMK A01 T10551081  RH  082%=      5-min Rain = 0
KPD1 131509Z 05002KT M05/M08 A3026 RMK A01 T10541081  RH  082%=      5-min Rain = 0
KPD1 131510Z 05002KT M05/M08 A3026 RMK A01 T10541081  RH  082%=      5-min Rain = 0
KPD1 131511Z 06003KT M05/M08 A3026 RMK A01 T10541081  RH  081%=      5-min Rain = 0
KPD1 131512Z 10002KT M05/M08 A3026 RMK A01 T10541082  RH  081%=      5-min Rain = 0
KPD1 131513Z 08002KT M06/M08 A3026 RMK A01 T10551083  RH  081%=      5-min Rain = 0
KPD1 131514Z 08003KT M06/M08 A3026 RMK A01 T10551082  RH  081%=      5-min Rain = 0
KPD1 131515Z 08003KT M05/M08 A3026 RMK A01 T10541081  RH  081%=      5-min Rain = 0
KPD1 131516Z 06004KT M05/M08 A3026 RMK A01 T10541081  RH  081%=      5-min Rain = 0
KPD1 131517Z 05003KT M05/M08 A3026 RMK A01 T10541082  RH  081%=      5-min Rain = 0
KPD1 131518Z 05003KT M05/M08 A3026 RMK A01 T10541082  RH  081%=      5-min Rain = 0
KPD1 131519Z 09002KT M06/M08 A3026 RMK A01 T10551083  RH  081%=      5-min Rain = 0
KPD1 131520Z 09003KT M06/M08 A3026 RMK A01 T10551082  RH  081%=      5-min Rain = 0
KPD1 131521Z 09004KT M05/M08 A3026 RMK A01 T10541080  RH  082%=      5-min Rain = 0
KPD1 131522Z 09005KT M05/M08 A3026 RMK A01 T10531080  RH  082%=      5-min Rain = 0
KPD1 131523Z 09005KT M05/M08 A3026 RMK A01 T10531080  RH  081%=      5-min Rain = 0
KPD1 131524Z 09004KT M05/M08 A3026 RMK A01 T10541081  RH  081%=      5-min Rain = 0
KPD1 131525Z 09005KT M05/M08 A3026 RMK A01 T10541081  RH  081%=      5-min Rain = 0
KPD1 131526Z 09005KT M05/M08 A3026 RMK A01 T10541081  RH  081%=      5-min Rain = 0
KPD1 131527Z 09005KT M05/M08 A3026 RMK A01 T10541082  RH  081%=      5-min Rain = 0
KPD1 131528Z 08005KT M05/M08 A3026 RMK A01 T10541082  RH  081%=      5-min Rain = 0
KPD1 131529Z 09006KT M05/M08 A3026 RMK A01 T10541082  RH  081%=      5-min Rain = 0
KPD1 131530Z 08005KT M05/M08 A3026 RMK A01 T10541082  RH  081%=      5-min Rain = 0
KPD1 131531Z 09006KT M05/M08 A3027 RMK A01 T10541082  RH  081%=      5-min Rain = 0
KPD1 131532Z 09005KT M05/M08 A3027 RMK A01 T10541081  RH  081%=      5-min Rain = 0
KPD1 131533Z 08004KT M05/M08 A3027 RMK A01 T10541082  RH  081%=      5-min Rain = 0
KPD1 131534Z 07003KT M05/M08 A3027 RMK A01 T10541082  RH  081%=      5-min Rain = 0
KPD1 131535Z 07003KT M05/M08 A3027 RMK A01 T10541082  RH  081%=      5-min Rain = 0
KPD1 131536Z 08004KT M05/M08 A3027 RMK A01 T10541082  RH  081%=      5-min Rain = 0
KPD1 131537Z 07004KT M05/M08 A3026 RMK A01 T10531081  RH  081%=      5-min Rain = 0
KPD1 131538Z 09004KT M05/M08 A3027 RMK A01 T10521080  RH  081%=      5-min Rain = 0
KPD1 131539Z 11005KT M05/M08 A3027 RMK A01 T10521081  RH  080%=      5-min Rain = 0
KPD1 131540Z 12003KT M05/M08 A3027 RMK A01 T10521081  RH  080%=      5-min Rain = 0
KPD1 131541Z 13003KT M05/M08 A3027 RMK A01 T10521080  RH  080%=      5-min Rain = 0
KPD1 131542Z 11004KT M05/M08 A3027 RMK A01 T10511080  RH  080%=      5-min Rain = 0
KPD1 131543Z 13004KT M05/M08 A3027 RMK A01 T10491079  RH  080%=      5-min Rain = 0
KPD1 131544Z 12004KT M05/M08 A3027 RMK A01 T10481078  RH  080%=      5-min Rain = 0
KPD1 131545Z 10003KT M05/M08 A3027 RMK A01 T10491079  RH  079%=      5-min Rain = 0
KPD1 131546Z 11003KT M05/M08 A3027 RMK A01 T10481078  RH  079%=      5-min Rain = 0
KPD1 131547Z 11004KT M05/M08 A3027 RMK A01 T10471077  RH  079%=      5-min Rain = 0
KPD1 131548Z 11005KT M05/M08 A3027 RMK A01 T10461078  RH  079%=      5-min Rain = 0
KPD1 131549Z 10004KT M05/M08 A3027 RMK A01 T10471079  RH  078%=      5-min Rain = 0
KPD1 131550Z 09005KT M05/M08 A3027 RMK A01 T10471079  RH  078%=      5-min Rain = 0
KPD1 131551Z 09004KT M05/M08 A3027 RMK A01 T10471079  RH  078%=      5-min Rain = 0
KPD1 131552Z 11003KT M05/M08 A3027 RMK A01 T10471079  RH  078%=      5-min Rain = 0
KPD1 131553Z 09002KT M05/M08 A3027 RMK A01 T10481080  RH  078%=      5-min Rain = 0
KPD1 131554Z 06004KT M05/M08 A3027 RMK A01 T10481080  RH  078%=      5-min Rain = 0
KPD1 131555Z 09004KT M05/M08 A3027 RMK A01 T10481080  RH  079%=      5-min Rain = 0
KPD1 131556Z 10003KT M05/M08 A3027 RMK A01 T10491080  RH  079%=      5-min Rain = 0
KPD1 131557Z 08003KT M05/M08 A3027 RMK A01 T10491081  RH  079%=      5-min Rain = 0
KPD1 131558Z 09004KT M05/M08 A3027 RMK A01 T10491080  RH  079%=      5-min Rain = 0
KPD1 131559Z 09004KT M05/M08 A3027 RMK A01 T10481078  RH  079%=      5-min Rain = 0
KPD1 131600Z 08004KT M05/M08 A3027 RMK A01 T10471077  RH  079%=      5-min Rain = 0
KPD1 131601Z 08003KT M05/M08 A3027 RMK A01 T10461076  RH  079%=      5-min Rain = 0
KPD1 131602Z 08004KT M05/M08 A3027 RMK A01 T10451076  RH  079%=      5-min Rain = 0
KPD1 131603Z 13004KT M05/M08 A3027 RMK A01 T10451077  RH  078%=      5-min Rain = 0
KPD1 131604Z 17004KT M04/M08 A3027 RMK A01 T10441076  RH  078%=      5-min Rain = 0
KPD1 131605Z 18003KT M04/M08 A3027 RMK A01 T10441078  RH  077%=      5-min Rain = 0
KPD1 131606Z 15004KT M04/M08 A3027 RMK A01 T10441078  RH  077%=      5-min Rain = 0
KPD1 131607Z 14005KT M04/M08 A3027 RMK A01 T10441079  RH  076%=      5-min Rain = 0
KPD1 131608Z 14004KT M04/M08 A3027 RMK A01 T10441079  RH  077%=      5-min Rain = 0
KPD1 131609Z 16004KT M04/M08 A3027 RMK A01 T10441079  RH  076%=      5-min Rain = 0
KPD1 131610Z 16005KT M04/M08 A3027 RMK A01 T10441080  RH  076%=      5-min Rain = 0
KPD1 131611Z 15004KT M04/M08 A3027 RMK A01 T10441081  RH  076%=      5-min Rain = 0
KPD1 131612Z 14004KT M04/M08 A3027 RMK A01 T10441079  RH  076%=      5-min Rain = 0
KPD1 131613Z 14003KT M04/M08 A3027 RMK A01 T10431078  RH  077%=      5-min Rain = 0
KPD1 131614Z 15004KT M04/M08 A3027 RMK A01 T10421077  RH  076%=      5-min Rain = 0
KPD1 131615Z 14003KT M04/M08 A3027 RMK A01 T10411077  RH  076%=      5-min Rain = 0
KPD1 131616Z 14004KT M04/M08 A3027 RMK A01 T10411078  RH  075%=      5-min Rain = 0
KPD1 131617Z 14005KT M04/M08 A3027 RMK A01 T10411078  RH  075%=      5-min Rain = 0
KPD1 131618Z 14003KT M04/M08 A3027 RMK A01 T10401078  RH  075%=      5-min Rain = 0
KPD1 131619Z 14004KT M04/M08 A3027 RMK A01 T10401078  RH  075%=      5-min Rain = 0
KPD1 131620Z 14003KT M04/M08 A3027 RMK A01 T10401079  RH  075%=      5-min Rain = 0
KPD1 131621Z 14004KT M04/M08 A3027 RMK A01 T10401079  RH  074%=      5-min Rain = 0
KPD1 131622Z 14003KT M04/M08 A3027 RMK A01 T10401079  RH  074%=      5-min Rain = 0
KPD1 131623Z 15003KT M04/M08 A3027 RMK A01 T10381078  RH  074%=      5-min Rain = 0
KPD1 131624Z 15002KT M04/M08 A3027 RMK A01 T10371078  RH  073%=      5-min Rain = 0
KPD1 131625Z 17001KT M04/M08 A3027 RMK A01 T10361078  RH  073%=      5-min Rain = 0
KPD1 131626Z 16003KT M04/M08 A3027 RMK A01 T10351076  RH  073%=      5-min Rain = 0
KPD1 131627Z 16003KT M03/M08 A3027 RMK A01 T10341077  RH  072%=      5-min Rain = 0
KPD1 131628Z 16001KT M03/M08 A3027 RMK A01 T10341079  RH  071%=      5-min Rain = 0
KPD1 131629Z 21001KT M04/M08 A3028 RMK A01 T10351080  RH  071%=      5-min Rain = 0
KPD1 131630Z 13001KT M04/M08 A3028 RMK A01 T10361082  RH  071%=      5-min Rain = 0
KPD1 131631Z 19002KT M04/M08 A3028 RMK A01 T10371081  RH  071%=      5-min Rain = 0
KPD1 131632Z 20002KT M04/M08 A3028 RMK A01 T10361079  RH  072%=      5-min Rain = 0
KPD1 131633Z 23001KT M04/M08 A3028 RMK A01 T10361078  RH  072%=      5-min Rain = 0
KPD1 131634Z 16003KT M04/M08 A3028 RMK A01 T10361080  RH  072%=      5-min Rain = 0
KPD1 131635Z 16001KT M04/M08 A3028 RMK A01 T10361080  RH  071%=      5-min Rain = 0
KPD1 131636Z 17004KT M04/M08 A3028 RMK A01 T10361080  RH  071%=      5-min Rain = 0
KPD1 131637Z 20003KT M04/M08 A3028 RMK A01 T10351080  RH  071%=      5-min Rain = 0
KPD1 131638Z 19002KT M04/M08 A3028 RMK A01 T10351080  RH  071%=      5-min Rain = 0
KPD1 131639Z 14003KT M03/M08 A3028 RMK A01 T10341077  RH  072%=      5-min Rain = 0
KPD1 131640Z 11002KT M03/M08 A3028 RMK A01 T10321075  RH  073%=      5-min Rain = 0
KPD1 131641Z 12002KT M03/M08 A3028 RMK A01 T10311076  RH  071%=      5-min Rain = 0
KPD1 131642Z 09002KT M03/M08 A3028 RMK A01 T10331078  RH  071%=      5-min Rain = 0
KPD1 131643Z 05003KT M04/M08 A3028 RMK A01 T10351081  RH  071%=      5-min Rain = 0
KPD1 131644Z 05004KT M04/M08 A3028 RMK A01 T10361081  RH  071%=      5-min Rain = 0
KPD1 131645Z 07003KT M04/M08 A3028 RMK A01 T10371081  RH  072%=      5-min Rain = 0
KPD1 131646Z 07002KT M04/M08 A3028 RMK A01 T10391081  RH  073%=      5-min Rain = 0
KPD1 131647Z 07003KT M04/M08 A3028 RMK A01 T10391079  RH  073%=      5-min Rain = 0
KPD1 131648Z 09003KT M04/M08 A3028 RMK A01 T10381079  RH  074%=      5-min Rain = 0
KPD1 131649Z 09003KT M04/M08 A3028 RMK A01 T10381078  RH  074%=      5-min Rain = 0
KPD1 131650Z 07003KT M04/M08 A3028 RMK A01 T10371076  RH  074%=      5-min Rain = 0
KPD1 131651Z 06003KT M04/M08 A3028 RMK A01 T10361076  RH  074%=      5-min Rain = 0
KPD1 131652Z 09002KT M04/M08 A3028 RMK A01 T10361077  RH  073%=      5-min Rain = 0
KPD1 131653Z 09002KT M04/M08 A3027 RMK A01 T10361076  RH  074%=      5-min Rain = 0
KPD1 131654Z 09002KT M04/M08 A3027 RMK A01 T10351076  RH  073%=      5-min Rain = 0
KPD1 131655Z 08003KT M04/M08 A3027 RMK A01 T10351076  RH  073%=      5-min Rain = 0
KPD1 131656Z 12002KT M04/M08 A3027 RMK A01 T10351077  RH  073%=      5-min Rain = 0
KPD1 131657Z 15003KT M03/M08 A3027 RMK A01 T10341077  RH  072%=      5-min Rain = 0
KPD1 131658Z 15003KT M03/M08 A3027 RMK A01 T10341078  RH  072%=      5-min Rain = 0
KPD1 131659Z 13003KT M03/M08 A3027 RMK A01 T10321075  RH  072%=      5-min Rain = 0
KPD1 131700Z 13004KT M03/M08 A3027 RMK A01 T10301075  RH  071%=      5-min Rain = 0
KPD1 131701Z 09002KT M03/M07 A3027 RMK A01 T10291074  RH  071%=      5-min Rain = 0
KPD1 131702Z 09002KT M03/M07 A3027 RMK A01 T10271070  RH  072%=      5-min Rain = 0
KPD1 131703Z 09002KT M03/M07 A3027 RMK A01 T10261071  RH  071%=      5-min Rain = 0
KPD1 131704Z 13004KT M03/M07 A3027 RMK A01 T10261074  RH  070%=      5-min Rain = 0
KPD1 131705Z 11004KT M03/M08 A3027 RMK A01 T10281076  RH  070%=      5-min Rain = 0
KPD1 131706Z 10003KT M03/M08 A3027 RMK A01 T10281075  RH  070%=      5-min Rain = 0
KPD1 131707Z 12004KT M03/M07 A3027 RMK A01 T10281074  RH  071%=      5-min Rain = 0
KPD1 131708Z 12003KT M03/M08 A3027 RMK A01 T10291076  RH  070%=      5-min Rain = 0
KPD1 131709Z 10002KT M03/M07 A3027 RMK A01 T10291074  RH  071%=      5-min Rain = 0
KPD1 131710Z 13001KT M03/M07 A3027 RMK A01 T10281074  RH  071%=      5-min Rain = 0
KPD1 131711Z 12003KT M03/M08 A3027 RMK A01 T10291076  RH  070%=      5-min Rain = 0
KPD1 131712Z 11003KT M03/M08 A3027 RMK A01 T10301077  RH  070%=      5-min Rain = 0
KPD1 131713Z 07001KT M03/M08 A3027 RMK A01 T10301077  RH  070%=      5-min Rain = 0
KPD1 131714Z 11002KT M03/M08 A3027 RMK A01 T10301077  RH  070%=      5-min Rain = 0
KPD1 131715Z 15003KT M03/M08 A3027 RMK A01 T10301077  RH  070%=      5-min Rain = 0
KPD1 131716Z 15004KT M03/M08 A3027 RMK A01 T10301077  RH  071%=      5-min Rain = 0
KPD1 131717Z 15002KT M03/M08 A3027 RMK A01 T10301077  RH  070%=      5-min Rain = 0
KPD1 131718Z 13003KT M03/M08 A3027 RMK A01 T10311077  RH  071%=      5-min Rain = 0
KPD1 131719Z 13002KT M03/M08 A3027 RMK A01 T10311077  RH  070%=      5-min Rain = 0
KPD1 131720Z 08001KT M03/M07 A3027 RMK A01 T10301074  RH  072%=      5-min Rain = 0
KPD1 131721Z 09002KT M03/M07 A3027 RMK A01 T10271071  RH  072%=      5-min Rain = 0
KPD1 131722Z 13001KT M03/M07 A3027 RMK A01 T10271074  RH  070%=      5-min Rain = 0
KPD1 131723Z 16002KT M03/M08 A3027 RMK A01 T10271075  RH  070%=      5-min Rain = 0
KPD1 131724Z 16004KT M03/M07 A3027 RMK A01 T10271074  RH  070%=      5-min Rain = 0
KPD1 131725Z 17003KT M03/M07 A3027 RMK A01 T10261073  RH  070%=      5-min Rain = 0
KPD1 131726Z 13001KT M03/M07 A3026 RMK A01 T10261073  RH  070%=      5-min Rain = 0
KPD1 131727Z 12003KT M03/M08 A3026 RMK A01 T10261075  RH  069%=      5-min Rain = 0
KPD1 131728Z 11004KT M03/M07 A3026 RMK A01 T10251073  RH  070%=      5-min Rain = 0
KPD1 131729Z 11002KT M02/M07 A3027 RMK A01 T10231072  RH  069%=      5-min Rain = 0
KPD1 131730Z 17001KT M02/M07 A3026 RMK A01 T10221072  RH  069%=      5-min Rain = 0
KPD1 131731Z 18003KT M02/M07 A3026 RMK A01 T10201069  RH  069%=      5-min Rain = 0
KPD1 131732Z 22002KT M02/M07 A3026 RMK A01 T10191071  RH  068%=      5-min Rain = 0
KPD1 131733Z 26001KT M02/M08 A3026 RMK A01 T10211075  RH  067%=      5-min Rain = 0
KPD1 131734Z 00000KT M02/M08 A3026 RMK A01 T10221075  RH  067%=      5-min Rain = 0
KPD1 131735Z 13002KT M02/M07 A3026 RMK A01 T10201074  RH  067%=      5-min Rain = 0
KPD1 131736Z 15003KT M02/M07 A3026 RMK A01 T10171070  RH  067%=      5-min Rain = 0
KPD1 131737Z 16005KT M01/M07 A3026 RMK A01 T10141067  RH  067%=      5-min Rain = 0
KPD1 131738Z 15004KT M01/M07 A3026 RMK A01 T10141071  RH  065%=      5-min Rain = 0
KPD1 131739Z 15004KT M02/M07 A3026 RMK A01 T10161074  RH  065%=      5-min Rain = 0
KPD1 131740Z 15004KT M02/M07 A3026 RMK A01 T10161073  RH  065%=      5-min Rain = 0
KPD1 131741Z 15004KT M02/M07 A3026 RMK A01 T10151072  RH  065%=      5-min Rain = 0
KPD1 131742Z 14004KT M01/M07 A3026 RMK A01 T10131070  RH  065%=      5-min Rain = 0
KPD1 131743Z 13003KT M01/M07 A3026 RMK A01 T10121068  RH  065%=      5-min Rain = 0
KPD1 131744Z 13003KT M01/M07 A3026 RMK A01 T10121071  RH  064%=      5-min Rain = 0
KPD1 131745Z 12004KT M01/M07 A3026 RMK A01 T10121072  RH  064%=      5-min Rain = 0
KPD1 131746Z 15002KT M01/M07 A3026 RMK A01 T10131073  RH  064%=      5-min Rain = 0
KPD1 131747Z 11002KT M01/M07 A3026 RMK A01 T10131073  RH  064%=      5-min Rain = 0
KPD1 131748Z 12002KT M01/M07 A3026 RMK A01 T10141073  RH  064%=      5-min Rain = 0
KPD1 131749Z 16002KT M01/M07 A3026 RMK A01 T10121070  RH  065%=      5-min Rain = 0
KPD1 131750Z 19001KT M01/M07 A3026 RMK A01 T10101069  RH  064%=      5-min Rain = 0
KPD1 131751Z 09002KT M01/M07 A3026 RMK A01 T10101072  RH  063%=      5-min Rain = 0
KPD1 131752Z 07003KT M01/M07 A3026 RMK A01 T10111072  RH  063%=      5-min Rain = 0
KPD1 131753Z 06003KT M01/M07 A3026 RMK A01 T10111072  RH  063%=      5-min Rain = 0
KPD1 131754Z 06005KT M01/M07 A3026 RMK A01 T10111070  RH  064%=      5-min Rain = 0
KPD1 131755Z 05004KT M01/M07 A3026 RMK A01 T10121072  RH  064%=      5-min Rain = 0
KPD1 131756Z 04003KT M01/M07 A3026 RMK A01 T10131071  RH  064%=      5-min Rain = 0
KPD1 131757Z 04004KT M01/M07 A3026 RMK A01 T10111068  RH  065%=      5-min Rain = 0
KPD1 131758Z 07003KT M01/M07 A3026 RMK A01 T10111069  RH  065%=      5-min Rain = 0
KPD1 131759Z 04003KT M01/M07 A3026 RMK A01 T10121072  RH  064%=      5-min Rain = 0
KPD1 131800Z 08004KT M02/M08 A3026 RMK A01 T10161075  RH  064%=      5-min Rain = 0
KPD1 131801Z 08003KT M02/M07 A3026 RMK A01 T10171074  RH  065%=      5-min Rain = 0
KPD1 131802Z 09003KT M02/M07 A3026 RMK A01 T10151069  RH  066%=      5-min Rain = 0
KPD1 131803Z 10004KT M01/M07 A3026 RMK A01 T10111065  RH  067%=      5-min Rain = 0
KPD1 131804Z 14005KT M01/M06 A3026 RMK A01 T10081064  RH  065%=      5-min Rain = 0
KPD1 131805Z 14005KT M01/M07 A3025 RMK A01 T10051065  RH  064%=      5-min Rain = 0
KPD1 131806Z 13007KT M00/M07 A3026 RMK A01 T10041066  RH  063%=      5-min Rain = 0
KPD1 131807Z 15004KT M01/M07 A3026 RMK A01 T10051069  RH  062%=      5-min Rain = 0
KPD1 131808Z 16004KT M01/M07 A3026 RMK A01 T10061072  RH  061%=      5-min Rain = 0
KPD1 131809Z 15003KT M01/M07 A3026 RMK A01 T10081074  RH  061%=      5-min Rain = 0
KPD1 131810Z 15002KT M01/M07 A3026 RMK A01 T10081071  RH  062%=      5-min Rain = 0
KPD1 131811Z 13001KT M01/M07 A3025 RMK A01 T10071069  RH  063%=      5-min Rain = 0
KPD1 131812Z 16004KT M01/M07 A3025 RMK A01 T10061070  RH  062%=      5-min Rain = 0
KPD1 131813Z 14008KT M01/M07 A3025 RMK A01 T10051069  RH  062%=      5-min Rain = 0
KPD1 131814Z 14006KT M01/M07 A3025 RMK A01 T10061070  RH  062%=      5-min Rain = 0
KPD1 131815Z 13004KT M01/M07 A3025 RMK A01 T10081071  RH  062%=      5-min Rain = 0
KPD1 131816Z 16004KT M01/M07 A3025 RMK A01 T10081070  RH  063%=      5-min Rain = 0
KPD1 131817Z 17006KT M01/M07 A3025 RMK A01 T10081069  RH  063%=      5-min Rain = 0
KPD1 131818Z 16005KT M01/M07 A3026 RMK A01 T10081069  RH  063%=      5-min Rain = 0
KPD1 131819Z 16001KT M01/M07 A3025 RMK A01 T10101072  RH  063%=      5-min Rain = 0
KPD1 131820Z 18006KT M01/M07 A3025 RMK A01 T10111072  RH  063%=      5-min Rain = 0
KPD1 131821Z 17004KT M01/M07 A3025 RMK A01 T10121071  RH  064%=      5-min Rain = 0
KPD1 131822Z 18005KT M01/M07 A3025 RMK A01 T10121070  RH  065%=      5-min Rain = 0
KPD1 131823Z 17005KT M01/M07 A3025 RMK A01 T10111069  RH  065%=      5-min Rain = 0
KPD1 131824Z 18005KT M01/M07 A3025 RMK A01 T10101069  RH  064%=      5-min Rain = 0
KPD1 131825Z 19005KT M01/M07 A3025 RMK A01 T10111071  RH  064%=      5-min Rain = 0
KPD1 131826Z 19004KT M01/M07 A3025 RMK A01 T10111070  RH  064%=      5-min Rain = 0
KPD1 131827Z 18004KT M01/M07 A3025 RMK A01 T10101069  RH  064%=      5-min Rain = 0
KPD1 131828Z 16006KT M01/M07 A3025 RMK A01 T10091068  RH  064%=      5-min Rain = 0
KPD1 131829Z 15004KT M01/M07 A3025 RMK A01 T10081069  RH  064%=      5-min Rain = 0
KPD1 131830Z 17005KT M01/M07 A3025 RMK A01 T10081067  RH  064%=      5-min Rain = 0
KPD1 131831Z 18005KT M01/M07 A3025 RMK A01 T10071067  RH  064%=      5-min Rain = 0
KPD1 131832Z 17004KT M01/M07 A3025 RMK A01 T10071068  RH  063%=      5-min Rain = 0
KPD1 131833Z 15004KT M01/M07 A3025 RMK A01 T10091070  RH  063%=      5-min Rain = 0
KPD1 131834Z 17003KT M01/M07 A3025 RMK A01 T10091069  RH  064%=      5-min Rain = 0
KPD1 131835Z 17004KT M01/M07 A3025 RMK A01 T10091068  RH  064%=      5-min Rain = 0
KPD1 131836Z 17004KT M01/M07 A3025 RMK A01 T10091069  RH  064%=      5-min Rain = 0
KPD1 131837Z 16003KT M01/M07 A3024 RMK A01 T10111072  RH  063%=      5-min Rain = 0
KPD1 131838Z 14001KT M01/M07 A3024 RMK A01 T10131072  RH  064%=      5-min Rain = 0
KPD1 131839Z 20001KT M01/M07 A3024 RMK A01 T10131072  RH  064%=      5-min Rain = 0
KPD1 131840Z 16001KT M01/M07 A3024 RMK A01 T10121070  RH  065%=      5-min Rain = 0
KPD1 131841Z 15003KT M01/M07 A3024 RMK A01 T10101067  RH  065%=      5-min Rain = 0
KPD1 131842Z 16006KT M01/M06 A3024 RMK A01 T10071064  RH  065%=      5-min Rain = 0
KPD1 131843Z 15007KT M00/M06 A3024 RMK A01 T10041062  RH  065%=      5-min Rain = 0
KPD1 131844Z 14004KT M00/M07 A3024 RMK A01 T10041065  RH  063%=      5-min Rain = 0
KPD1 131845Z 08002KT M01/M07 A3024 RMK A01 T10061068  RH  063%=      5-min Rain = 0
KPD1 131846Z 17001KT M01/M07 A3024 RMK A01 T10071069  RH  063%=      5-min Rain = 0
KPD1 131847Z 16003KT M01/M07 A3024 RMK A01 T10071067  RH  064%=      5-min Rain = 0
KPD1 131848Z 15006KT M01/M06 A3024 RMK A01 T10051064  RH  064%=      5-min Rain = 0
KPD1 131849Z 17006KT M00/M06 A3024 RMK A01 T10041064  RH  064%=      5-min Rain = 0
KPD1 131850Z 19004KT M00/M06 A3024 RMK A01 T10031064  RH  063%=      5-min Rain = 0
KPD1 131851Z 16005KT M00/M07 A3024 RMK A01 T10041065  RH  063%=      5-min Rain = 0
KPD1 131852Z 15005KT M00/M06 A3024 RMK A01 T10031063  RH  064%=      5-min Rain = 0
KPD1 131853Z 15004KT M00/M07 A3024 RMK A01 T10021066  RH  062%=      5-min Rain = 0
KPD1 131854Z 15004KT M01/M07 A3024 RMK A01 T10051069  RH  062%=      5-min Rain = 0
KPD1 131855Z 14003KT M01/M07 A3023 RMK A01 T10051067  RH  063%=      5-min Rain = 0
KPD1 131856Z 13004KT M00/M06 A3023 RMK A01 T10031064  RH  064%=      5-min Rain = 0
KPD1 131857Z 13006KT M00/M06 A3023 RMK A01 T10011063  RH  063%=      5-min Rain = 0
KPD1 131858Z 14005KT 00/06 A3023 RMK A01 T00-00-63  RH  063%=      5-min Rain = 0
KPD1 131859Z 14006KT 00/06 A3023 RMK A01 T00-00-63  RH  062%=      5-min Rain = 0
KPD1 131900Z 14005KT 00/06 A3023 RMK A01 T00000-64  RH  062%=      5-min Rain = 0
KPD1 131901Z 15002KT 00/07 A3023 RMK A01 T00-00-65  RH  062%=      5-min Rain = 0
KPD1 131902Z 18002KT M00/M07 A3023 RMK A01 T10021067  RH  061%=      5-min Rain = 0
KPD1 131903Z 14002KT M00/M07 A3023 RMK A01 T10031067  RH  062%=      5-min Rain = 0
KPD1 131904Z 15003KT M00/M06 A3023 RMK A01 T10031064  RH  063%=      5-min Rain = 0
KPD1 131905Z 18006KT 00/M06 A3023 RMK A01 T00021058  RH  064%=      5-min Rain = 0
KPD1 131906Z 16005KT 00/M06 A3023 RMK A01 T00041059  RH  063%=      5-min Rain = 0
KPD1 131907Z 16005KT 00/M06 A3023 RMK A01 T00031061  RH  063%=      5-min Rain = 0
KPD1 131908Z 14006KT 00/M06 A3022 RMK A01 T00041059  RH  063%=      5-min Rain = 0
KPD1 131909Z 14006KT 00/M06 A3022 RMK A01 T00021063  RH  061%=      5-min Rain = 0
KPD1 131910Z 15006KT M00/M07 A3022 RMK A01 T10011066  RH  062%=      5-min Rain = 0
KPD1 131911Z 14003KT M00/M07 A3022 RMK A01 T10031066  RH  063%=      5-min Rain = 0
KPD1 131912Z 12002KT M00/M06 A3022 RMK A01 T10031063  RH  064%=      5-min Rain = 0
KPD1 131913Z 14002KT M00/M06 A3022 RMK A01 T10031063  RH  064%=      5-min Rain = 0
KPD1 131914Z 16004KT M00/M06 A3022 RMK A01 T10031064  RH  063%=      5-min Rain = 0
KPD1 131915Z 16007KT M00/M06 A3022 RMK A01 T10021063  RH  064%=      5-min Rain = 0
KPD1 131916Z 16007KT M00/M06 A3022 RMK A01 T10021062  RH  064%=      5-min Rain = 0
KPD1 131917Z 15007KT M00/M06 A3022 RMK A01 T10021062  RH  064%=      5-min Rain = 0
KPD1 131918Z 16005KT M00/M06 A3022 RMK A01 T10031064  RH  063%=      5-min Rain = 0
KPD1 131919Z 15003KT M00/M07 A3022 RMK A01 T10041066  RH  063%=      5-min Rain = 0
KPD1 131920Z 17003KT M01/M07 A3022 RMK A01 T10051065  RH  064%=      5-min Rain = 0
KPD1 131921Z 16004KT M01/M06 A3021 RMK A01 T10051064  RH  064%=      5-min Rain = 0
KPD1 131922Z 17006KT M00/M06 A3021 RMK A01 T10041064  RH  064%=      5-min Rain = 0
KPD1 131923Z 16005KT M00/M06 A3021 RMK A01 T10041063  RH  064%=      5-min Rain = 0
KPD1 131924Z 17004KT M00/M06 A3021 RMK A01 T10031062  RH  064%=      5-min Rain = 0
KPD1 131925Z 14006KT M00/M06 A3021 RMK A01 T10031062  RH  064%=      5-min Rain = 0
KPD1 131926Z 16006KT M00/M06 A3021 RMK A01 T10011061  RH  064%=      5-min Rain = 0
KPD1 131927Z 14006KT 00/06 A3021 RMK A01 T00-00-60  RH  064%=      5-min Rain = 0
KPD1 131928Z 14004KT 00/M06 A3021 RMK A01 T00011060  RH  063%=      5-min Rain = 0
KPD1 131929Z 14004KT 00/M06 A3021 RMK A01 T00011062  RH  062%=      5-min Rain = 0
KPD1 131930Z 14005KT 00/M06 A3021 RMK A01 T00011061  RH  063%=      5-min Rain = 0
KPD1 131931Z 14004KT 00/M06 A3021 RMK A01 T00041057  RH  064%=      5-min Rain = 0
KPD1 131932Z 15002KT 01/M06 A3021 RMK A01 T00051057  RH  063%=      5-min Rain = 0
KPD1 131933Z 15005KT 01/M05 A3021 RMK A01 T00081053  RH  064%=      5-min Rain = 0
KPD1 131934Z 15005KT 01/M06 A3021 RMK A01 T00101055  RH  062%=      5-min Rain = 0
KPD1 131935Z 17004KT 01/M06 A3021 RMK A01 T00091058  RH  061%=      5-min Rain = 0
KPD1 131936Z 17003KT 01/M06 A3021 RMK A01 T00061062  RH  060%=      5-min Rain = 0
KPD1 131937Z 18001KT 00/M06 A3021 RMK A01 T00031064  RH  061%=      5-min Rain = 0
KPD1 131938Z 16001KT 00/M06 A3021 RMK A01 T00021064  RH  061%=      5-min Rain = 0
KPD1 131939Z 16005KT 00/M06 A3021 RMK A01 T00021061  RH  062%=      5-min Rain = 0
KPD1 131940Z 17007KT 00/M06 A3021 RMK A01 T00031060  RH  063%=      5-min Rain = 0
KPD1 131941Z 17008KT 01/M06 A3021 RMK A01 T00071055  RH  063%=      5-min Rain = 0
KPD1 131942Z 15006KT 01/M06 A3021 RMK A01 T00081057  RH  062%=      5-min Rain = 0
KPD1 131943Z 15009KT 01/M06 A3021 RMK A01 T00061059  RH  062%=      5-min Rain = 0
KPD1 131944Z 14006KT 00/M06 A3021 RMK A01 T00041062  RH  061%=      5-min Rain = 0
KPD1 131945Z 15007KT 00/07 A302 RMK A01 T00-00-65  RH  062%=      5-min Rain = 0
KPD1 131946Z 14006KT 00/06 A302 RMK A01 T00-00-61  RH  064%=      5-min Rain = 0
KPD1 131947Z 15007KT 00/06 A302 RMK A01 T00000-61  RH  063%=      5-min Rain = 0
KPD1 131948Z 15006KT 00/M06 A302 RMK A01 T00011061  RH  063%=      5-min Rain = 0
KPD1 131949Z 17005KT 00/M06 A302 RMK A01 T00011060  RH  064%=      5-min Rain = 0
KPD1 131950Z 16006KT 00/M06 A302 RMK A01 T00011061  RH  063%=      5-min Rain = 0
KPD1 131951Z 15004KT M00/M06 A302 RMK A01 T10011063  RH  063%=      5-min Rain = 0
KPD1 131952Z 17004KT 00/06 A302 RMK A01 T00-00-60  RH  064%=      5-min Rain = 0
KPD1 131953Z 15004KT 00/06 A3021 RMK A01 T00000-60  RH  064%=      5-min Rain = 0
KPD1 131954Z 14004KT 00/M06 A3021 RMK A01 T00021058  RH  064%=      5-min Rain = 0
KPD1 131955Z 15006KT 00/M06 A3021 RMK A01 T00031058  RH  064%=      5-min Rain = 0
KPD1 131956Z 16005KT 00/M06 A3021 RMK A01 T00021061  RH  062%=      5-min Rain = 0
KPD1 131957Z 14006KT 00/M06 A3021 RMK A01 T00011061  RH  063%=      5-min Rain = 0
KPD1 131958Z 12005KT 00/06 A3021 RMK A01 T00000-62  RH  063%=      5-min Rain = 0
KPD1 131959Z 12003KT 00/06 A3021 RMK A01 T00-00-60  RH  064%=      5-min Rain = 0
KPD1 132000Z 14005KT 00/M06 A3021 RMK A01 T00011058  RH  065%=      5-min Rain = 0
KPD1 132001Z 14006KT 00/M06 A3021 RMK A01 T00011059  RH  064%=      5-min Rain = 0
KPD1 132002Z 14006KT 00/M06 A3021 RMK A01 T00011060  RH  064%=      5-min Rain = 0
KPD1 132003Z 13004KT 00/M06 A3021 RMK A01 T00011060  RH  064%=      5-min Rain = 0
KPD1 132004Z 15005KT 00/06 A3021 RMK A01 T00000-60  RH  064%=      5-min Rain = 0
KPD1 132005Z 18006KT 00/06 A3021 RMK A01 T00000-60  RH  064%=      5-min Rain = 0
KPD1 132006Z 19009KT 00/06 A3021 RMK A01 T00000-59  RH  065%=      5-min Rain = 0
KPD1 132007Z 18006KT 00/06 A3021 RMK A01 T00-00-59  RH  065%=      5-min Rain = 0
KPD1 132008Z 17004KT M00/M06 A3021 RMK A01 T10011059  RH  065%=      5-min Rain = 0
KPD1 132009Z 18006KT M00/M06 A3021 RMK A01 T10011059  RH  065%=      5-min Rain = 0
KPD1 132010Z 20007KT M00/M06 A3021 RMK A01 T10011057  RH  066%=      5-min Rain = 0
KPD1 132011Z 20008KT 00/06 A3021 RMK A01 T00-00-57  RH  066%=      5-min Rain = 0
KPD1 132012Z 22005KT M00/M06 A3021 RMK A01 T10011058  RH  065%=      5-min Rain = 0
KPD1 132013Z 22003KT M00/M06 A3021 RMK A01 T10021060  RH  065%=      5-min Rain = 0
KPD1 132014Z 18003KT M00/M06 A3021 RMK A01 T10031060  RH  065%=      5-min Rain = 0
KPD1 132015Z 17004KT M00/M06 A3021 RMK A01 T10041059  RH  066%=      5-min Rain = 0
KPD1 132016Z 15003KT M00/M06 A3021 RMK A01 T10031058  RH  066%=      5-min Rain = 0
KPD1 132017Z 16005KT M00/M06 A3021 RMK A01 T10011057  RH  066%=      5-min Rain = 0
KPD1 132018Z 16005KT M00/M06 A3021 RMK A01 T10011057  RH  066%=      5-min Rain = 0
KPD1 132019Z 18007KT M00/M06 A3021 RMK A01 T10011058  RH  065%=      5-min Rain = 0
KPD1 132020Z 17006KT 00/06 A3021 RMK A01 T00-00-57  RH  066%=      5-min Rain = 0
KPD1 132021Z 17006KT 00/06 A3021 RMK A01 T00-00-57  RH  066%=      5-min Rain = 0
KPD1 132022Z 17006KT M00/M06 A3021 RMK A01 T10011058  RH  066%=      5-min Rain = 0
KPD1 132023Z 18006KT M00/M06 A3021 RMK A01 T10021058  RH  065%=      5-min Rain = 0
KPD1 132024Z 17005KT M00/M06 A3021 RMK A01 T10021059  RH  065%=      5-min Rain = 0
KPD1 132025Z 18005KT M00/M06 A3021 RMK A01 T10031059  RH  066%=      5-min Rain = 0
KPD1 132026Z 21006KT M00/M06 A3021 RMK A01 T10031058  RH  066%=      5-min Rain = 0
KPD1 132027Z 20005KT M00/M06 A3021 RMK A01 T10031057  RH  067%=      5-min Rain = 0
KPD1 132028Z 16006KT M00/M06 A302 RMK A01 T10031058  RH  066%=      5-min Rain = 0
KPD1 132029Z 14005KT M00/M06 A302 RMK A01 T10031058  RH  066%=      5-min Rain = 0
KPD1 132030Z 14005KT M00/M06 A302 RMK A01 T10031057  RH  067%=      5-min Rain = 0
KPD1 132031Z 14006KT M00/M06 A302 RMK A01 T10021056  RH  067%=      5-min Rain = 0
KPD1 132032Z 14004KT M00/M06 A3021 RMK A01 T10011056  RH  067%=      5-min Rain = 0
KPD1 132033Z 16006KT M00/M06 A3021 RMK A01 T10011057  RH  066%=      5-min Rain = 0
KPD1 132034Z 15007KT M00/M06 A3021 RMK A01 T10021058  RH  066%=      5-min Rain = 0
KPD1 132035Z 16005KT M00/M06 A3021 RMK A01 T10031059  RH  066%=      5-min Rain = 0
KPD1 132036Z 15006KT M00/M06 A302 RMK A01 T10041059  RH  066%=      5-min Rain = 0
KPD1 132037Z 15006KT M00/M06 A302 RMK A01 T10031058  RH  067%=      5-min Rain = 0
KPD1 132038Z 16007KT M00/M06 A302 RMK A01 T10031056  RH  068%=      5-min Rain = 0
KPD1 132039Z 18009KT M00/M05 A302 RMK A01 T10021054  RH  068%=      5-min Rain = 0
KPD1 132040Z 17008KT M00/M05 A302 RMK A01 T10021054  RH  068%=      5-min Rain = 0
KPD1 132041Z 16009KT M00/M05 A302 RMK A01 T10021053  RH  068%=      5-min Rain = 0
KPD1 132042Z 17009KT M00/M05 A302 RMK A01 T10011052  RH  068%=      5-min Rain = 0
KPD1 132043Z 18009KT M00/M05 A302 RMK A01 T10011053  RH  068%=      5-min Rain = 0
KPD1 132044Z 18009KT M00/M05 A302 RMK A01 T10011053  RH  068%=      5-min Rain = 0
KPD1 132045Z 17007KT M00/M05 A302 RMK A01 T10011052  RH  068%=      5-min Rain = 0
KPD1 132046Z 17008KT 00/05 A302 RMK A01 T00000-51  RH  068%=      5-min Rain = 0
KPD1 132047Z 18008KT 00/M05 A302 RMK A01 T00011050  RH  069%=      5-min Rain = 0
KPD1 132048Z 18010KT 00/M05 A302 RMK A01 T00031048  RH  069%=      5-min Rain = 0
KPD1 132049Z 18009KT 00/M05 A302 RMK A01 T00041049  RH  068%=      5-min Rain = 0
KPD1 132050Z 17008KT 00/M05 A302 RMK A01 T00031051  RH  067%=      5-min Rain = 0
KPD1 132051Z 16008KT 00/M05 A302 RMK A01 T00021049  RH  068%=      5-min Rain = 0
KPD1 132052Z 16008KT 00/M05 A302 RMK A01 T00041048  RH  068%=      5-min Rain = 0
KPD1 132053Z 16009KT 01/M05 A302 RMK A01 T00051048  RH  068%=      5-min Rain = 0
KPD1 132054Z 16010KT 00/M05 A3019 RMK A01 T00041049  RH  067%=      5-min Rain = 0
KPD1 132055Z 16011KT 00/M05 A3019 RMK A01 T00041050  RH  067%=      5-min Rain = 0
KPD1 132056Z 17012KT 00/M05 A3019 RMK A01 T00021051  RH  067%=      5-min Rain = 0
KPD1 132057Z 17012KT 00/M05 A3019 RMK A01 T00021051  RH  067%=      5-min Rain = 0
KPD1 132058Z 17013KT 00/M05 A3019 RMK A01 T00011051  RH  068%=      5-min Rain = 0
KPD1 132059Z 17011KT 00/M05 A3019 RMK A01 T00011052  RH  068%=      5-min Rain = 0
KPD1 132100Z 17014KT 00/M05 A3019 RMK A01 T00011051  RH  068%=      5-min Rain = 0
KPD1 132101Z 16011KT 00/M05 A3019 RMK A01 T00011051  RH  068%=      5-min Rain = 0
KPD1 132102Z 16013KT 00/M05 A3019 RMK A01 T00011051  RH  068%=      5-min Rain = 0
KPD1 132103Z 17011KT 00/M05 A3019 RMK A01 T00011051  RH  068%=      5-min Rain = 0
KPD1 132104Z 17010KT 00/M05 A3019 RMK A01 T00011050  RH  068%=      5-min Rain = 0
KPD1 132105Z 17012KT 00/M05 A3019 RMK A01 T00011050  RH  069%=      5-min Rain = 0
KPD1 132106Z 17012KT 00/M05 A3018 RMK A01 T00021050  RH  068%=      5-min Rain = 0
KPD1 132107Z 17010KT 00/M05 A3018 RMK A01 T00011051  RH  068%=      5-min Rain = 0
KPD1 132108Z 16009KT 00/M05 A3018 RMK A01 T00011051  RH  068%=      5-min Rain = 0
KPD1 132109Z 16008KT 00/M05 A3018 RMK A01 T00011050  RH  068%=      5-min Rain = 0
KPD1 132110Z 16010KT 00/M05 A3018 RMK A01 T00031048  RH  069%=      5-min Rain = 0
KPD1 132111Z 16012KT 01/M05 A3018 RMK A01 T00051048  RH  068%=      5-min Rain = 0
KPD1 132112Z 16009KT 01/M05 A3018 RMK A01 T00061047  RH  067%=      5-min Rain = 0
KPD1 132113Z 16007KT 01/M05 A3018 RMK A01 T00091046  RH  067%=      5-min Rain = 0
KPD1 132114Z 16009KT 01/M04 A3018 RMK A01 T00111044  RH  066%=      5-min Rain = 0
KPD1 132115Z 15008KT 01/M05 A3018 RMK A01 T00131046  RH  065%=      5-min Rain = 0
KPD1 132116Z 15011KT 01/M05 A3018 RMK A01 T00131046  RH  065%=      5-min Rain = 0
KPD1 132117Z 15012G17KT 02/M05 A3018 RMK A01 T00151045  RH  065%=      5-min Rain = 0
KPD1 132118Z 15013KT 02/M05 A3018 RMK A01 T00151046  RH  064%=      5-min Rain = 0
KPD1 132119Z 16013KT 01/M05 A3018 RMK A01 T00141048  RH  063%=      5-min Rain = 0
KPD1 132120Z 17011KT 01/M05 A3018 RMK A01 T00131048  RH  064%=      5-min Rain = 0
KPD1 132121Z 17010KT 01/M05 A3018 RMK A01 T00141045  RH  065%=      5-min Rain = 0
KPD1 132122Z 16007KT 02/M04 A3018 RMK A01 T00181043  RH  064%=      5-min Rain = 0
KPD1 132123Z 18010KT 02/M04 A3018 RMK A01 T00201041  RH  064%=      5-min Rain = 0
KPD1 132124Z 15007G13KT 02/M04 A3018 RMK A01 T00211044  RH  062%=      5-min Rain = 0
KPD1 132125Z 15010KT 02/M05 A3018 RMK A01 T00211045  RH  062%=      5-min Rain = 0
KPD1 132126Z 15010KT 02/M05 A3018 RMK A01 T00201046  RH  062%=      5-min Rain = 0
KPD1 132127Z 14012KT 02/M05 A3018 RMK A01 T00191047  RH  062%=      5-min Rain = 0
KPD1 132128Z 15010KT 02/M05 A3018 RMK A01 T00191046  RH  062%=      5-min Rain = 0
KPD1 132129Z 15011KT 02/M05 A3018 RMK A01 T00191047  RH  062%=      5-min Rain = 0
KPD1 132130Z 15011KT 02/M05 A3018 RMK A01 T00181048  RH  061%=      5-min Rain = 0
KPD1 132131Z 14011KT 02/M05 A3018 RMK A01 T00181047  RH  062%=      5-min Rain = 0
KPD1 132132Z 13010KT 02/M05 A3018 RMK A01 T00181047  RH  062%=      5-min Rain = 0
KPD1 132133Z 15011KT 02/M05 A3018 RMK A01 T00181049  RH  061%=      5-min Rain = 0
KPD1 132134Z 15012KT 02/M05 A3018 RMK A01 T00171050  RH  062%=      5-min Rain = 0
KPD1 132135Z 15012KT 02/M05 A3018 RMK A01 T00161050  RH  062%=      5-min Rain = 0
KPD1 132136Z 14010KT 02/M05 A3018 RMK A01 T00151050  RH  062%=      5-min Rain = 0
KPD1 132137Z 14012KT 01/M05 A3018 RMK A01 T00141050  RH  062%=      5-min Rain = 0
KPD1 132138Z 15010KT 01/M05 A3018 RMK A01 T00121052  RH  062%=      5-min Rain = 0
KPD1 132139Z 15008KT 01/M05 A3018 RMK A01 T00091053  RH  063%=      5-min Rain = 0
KPD1 132140Z 14008KT 01/M05 A3018 RMK A01 T00091052  RH  064%=      5-min Rain = 0
KPD1 132141Z 14010G15KT 01/M05 A3018 RMK A01 T00081051  RH  064%=      5-min Rain = 0
KPD1 132142Z 14008KT 01/M05 A3018 RMK A01 T00081051  RH  064%=      5-min Rain = 0
KPD1 132143Z 14010KT 01/M05 A3018 RMK A01 T00101050  RH  065%=      5-min Rain = 0
KPD1 132144Z 15008KT 01/M05 A3018 RMK A01 T00111049  RH  064%=      5-min Rain = 0
KPD1 132145Z 15008G13KT 01/M05 A3018 RMK A01 T00141046  RH  064%=      5-min Rain = 0
KPD1 132146Z 14009KT 02/M05 A3018 RMK A01 T00161046  RH  063%=      5-min Rain = 0
KPD1 132147Z 15010KT 02/M05 A3018 RMK A01 T00161048  RH  063%=      5-min Rain = 0
KPD1 132148Z 15006KT 02/M05 A3018 RMK A01 T00151049  RH  062%=      5-min Rain = 0
KPD1 132149Z 15007KT 01/M05 A3018 RMK A01 T00141049  RH  063%=      5-min Rain = 0
KPD1 132150Z 14007KT 01/M05 A3018 RMK A01 T00141049  RH  063%=      5-min Rain = 0
KPD1 132151Z 14009KT 01/M05 A3018 RMK A01 T00131050  RH  063%=      5-min Rain = 0
KPD1 132152Z 14008KT 01/M05 A3018 RMK A01 T00121050  RH  064%=      5-min Rain = 0
KPD1 132153Z 15009KT 01/M05 A3018 RMK A01 T00121049  RH  064%=      5-min Rain = 0
KPD1 132154Z 15009KT 01/M05 A3018 RMK A01 T00101051  RH  064%=      5-min Rain = 0
KPD1 132155Z 15008KT 01/M05 A3018 RMK A01 T00091051  RH  064%=      5-min Rain = 0
KPD1 132156Z 15008KT 01/M05 A3018 RMK A01 T00091050  RH  065%=      5-min Rain = 0
KPD1 132157Z 14008KT 01/M05 A3018 RMK A01 T00091050  RH  065%=      5-min Rain = 0
KPD1 132158Z 15010KT 01/M05 A3018 RMK A01 T00091050  RH  065%=      5-min Rain = 0
KPD1 132159Z 14010KT 01/M05 A3018 RMK A01 T00091050  RH  065%=      5-min Rain = 0
KPD1 132200Z 14010KT 01/M05 A3018 RMK A01 T00091050  RH  065%=      5-min Rain = 0
KPD1 132201Z 14009KT 01/M05 A3018 RMK A01 T00091050  RH  065%=      5-min Rain = 0
KPD1 132202Z 14010KT 01/M05 A3018 RMK A01 T00081050  RH  065%=      5-min Rain = 0
KPD1 132203Z 15007KT 01/M05 A3018 RMK A01 T00071051  RH  065%=      5-min Rain = 0
KPD1 132204Z 15009KT 01/M05 A3018 RMK A01 T00071051  RH  065%=      5-min Rain = 0
KPD1 132205Z 14008KT 01/M05 A3018 RMK A01 T00071050  RH  066%=      5-min Rain = 0
KPD1 132206Z 14008KT 01/M05 A3018 RMK A01 T00071050  RH  066%=      5-min Rain = 0
KPD1 132207Z 15008KT 01/M05 A3018 RMK A01 T00081049  RH  066%=      5-min Rain = 0
KPD1 132208Z 14009KT 01/M05 A3018 RMK A01 T00081049  RH  066%=      5-min Rain = 0
KPD1 132209Z 14009KT 01/M05 A3018 RMK A01 T00071050  RH  066%=      5-min Rain = 0
KPD1 132210Z 15009KT 01/M05 A3018 RMK A01 T00071050  RH  066%=      5-min Rain = 0
KPD1 132211Z 13005KT 01/M05 A3018 RMK A01 T00071049  RH  066%=      5-min Rain = 0
KPD1 132212Z 13009KT 01/M05 A3019 RMK A01 T00071049  RH  066%=      5-min Rain = 0
KPD1 132213Z 12008KT 01/M05 A3019 RMK A01 T00071049  RH  066%=      5-min Rain = 0
KPD1 132214Z 13008KT 01/M05 A3019 RMK A01 T00071050  RH  066%=      5-min Rain = 0
KPD1 132215Z 13007KT 01/M05 A3019 RMK A01 T00061050  RH  066%=      5-min Rain = 0
KPD1 132216Z 14007KT 01/M05 A3019 RMK A01 T00061050  RH  066%=      5-min Rain = 0
KPD1 132217Z 13008KT 01/M05 A3019 RMK A01 T00061050  RH  066%=      5-min Rain = 0
KPD1 132218Z 14007KT 01/M05 A3019 RMK A01 T00051050  RH  066%=      5-min Rain = 0
KPD1 132219Z 14005KT 01/M05 A3019 RMK A01 T00051051  RH  066%=      5-min Rain = 0
KPD1 132220Z 13008KT 01/M05 A3019 RMK A01 T00051050  RH  067%=      5-min Rain = 0
KPD1 132221Z 13006KT 01/M05 A3019 RMK A01 T00051050  RH  066%=      5-min Rain = 0
KPD1 132222Z 13007KT 01/M05 A3019 RMK A01 T00061049  RH  067%=      5-min Rain = 0
KPD1 132223Z 14008KT 01/M05 A3019 RMK A01 T00061048  RH  067%=      5-min Rain = 0
KPD1 132224Z 15007KT 01/M05 A3019 RMK A01 T00061048  RH  067%=      5-min Rain = 0
KPD1 132225Z 14009KT 01/M05 A3019 RMK A01 T00061049  RH  067%=      5-min Rain = 0
KPD1 132226Z 13007KT 01/M05 A3019 RMK A01 T00061050  RH  066%=      5-min Rain = 0
KPD1 132227Z 15009KT 01/M05 A3019 RMK A01 T00061049  RH  067%=      5-min Rain = 0
KPD1 132228Z 15010KT 01/M05 A3019 RMK A01 T00051050  RH  067%=      5-min Rain = 0
KPD1 132229Z 13008KT 01/M05 A3019 RMK A01 T00051050  RH  067%=      5-min Rain = 0
KPD1 132230Z 15009KT 01/M05 A3019 RMK A01 T00051050  RH  067%=      5-min Rain = 0
KPD1 132231Z 14009KT 01/M05 A3019 RMK A01 T00051050  RH  067%=      5-min Rain = 0
KPD1 132232Z 14009KT 01/M05 A3019 RMK A01 T00051051  RH  066%=      5-min Rain = 0
KPD1 132233Z 13009KT 00/M05 A3019 RMK A01 T00041051  RH  067%=      5-min Rain = 0
KPD1 132234Z 14009KT 00/M05 A3019 RMK A01 T00041050  RH  067%=      5-min Rain = 0
KPD1 132235Z 14007KT 00/M05 A3019 RMK A01 T00041051  RH  067%=      5-min Rain = 0
KPD1 132236Z 14007KT 00/M05 A3019 RMK A01 T00041050  RH  067%=      5-min Rain = 0
KPD1 132237Z 13007KT 01/M05 A3019 RMK A01 T00051049  RH  067%=      5-min Rain = 0
KPD1 132238Z 14008KT 01/M05 A3019 RMK A01 T00051049  RH  067%=      5-min Rain = 0
KPD1 132239Z 14009KT 01/M05 A3019 RMK A01 T00051050  RH  067%=      5-min Rain = 0
KPD1 132240Z 14008KT 01/M05 A3019 RMK A01 T00051050  RH  067%=      5-min Rain = 0
KPD1 132241Z 14010KT 01/M05 A3019 RMK A01 T00051050  RH  067%=      5-min Rain = 0
KPD1 132242Z 15009KT 00/M05 A3019 RMK A01 T00041051  RH  067%=      5-min Rain = 0
KPD1 132243Z 14010KT 00/M05 A3019 RMK A01 T00041050  RH  067%=      5-min Rain = 0
KPD1 132244Z 14011KT 00/M05 A3019 RMK A01 T00041051  RH  067%=      5-min Rain = 0
KPD1 132245Z 13009KT 00/M05 A3019 RMK A01 T00031051  RH  067%=      5-min Rain = 0
KPD1 132246Z 14009KT 00/M05 A3019 RMK A01 T00031051  RH  067%=      5-min Rain = 0
KPD1 132247Z 15008KT 00/M05 A3019 RMK A01 T00031051  RH  067%=      5-min Rain = 0
KPD1 132248Z 15010KT 00/M05 A3019 RMK A01 T00031051  RH  067%=      5-min Rain = 0
KPD1 132249Z 13010KT 00/M05 A3019 RMK A01 T00031052  RH  067%=      5-min Rain = 0
KPD1 132250Z 14010KT 00/M05 A3019 RMK A01 T00031052  RH  067%=      5-min Rain = 0
KPD1 132251Z 14011KT 00/M05 A3019 RMK A01 T00021052  RH  067%=      5-min Rain = 0
KPD1 132252Z 13009KT 00/M05 A3019 RMK A01 T00021052  RH  067%=      5-min Rain = 0
KPD1 132253Z 14008KT 00/M05 A3019 RMK A01 T00021052  RH  067%=      5-min Rain = 0
KPD1 132254Z 15010KT 00/M05 A3019 RMK A01 T00021052  RH  067%=      5-min Rain = 0
KPD1 132255Z 13008KT 00/M05 A3019 RMK A01 T00021052  RH  067%=      5-min Rain = 0
KPD1 132256Z 14009KT 00/M05 A3019 RMK A01 T00021052  RH  067%=      5-min Rain = 0
KPD1 132257Z 13010KT 00/M05 A3019 RMK A01 T00021052  RH  067%=      5-min Rain = 0
KPD1 132258Z 14006KT 00/M05 A3019 RMK A01 T00011053  RH  067%=      5-min Rain = 0
KPD1 132259Z 14009KT 00/M05 A3019 RMK A01 T00021053  RH  067%=      5-min Rain = 0
KPD1 132300Z 14007KT 00/M05 A3019 RMK A01 T00021052  RH  067%=      5-min Rain = 0
KPD1 132301Z 14007KT 00/M05 A3019 RMK A01 T00021052  RH  067%=      5-min Rain = 0
KPD1 132302Z 15008KT 00/M05 A3019 RMK A01 T00011052  RH  067%=      5-min Rain = 0
KPD1 132303Z 13009KT 00/M05 A3019 RMK A01 T00011052  RH  067%=      5-min Rain = 0
KPD1 132304Z 14009KT 00/M05 A3019 RMK A01 T00011053  RH  067%=      5-min Rain = 0
KPD1 132305Z 14010KT 00/M05 A3019 RMK A01 T00011053  RH  067%=      5-min Rain = 0
KPD1 132306Z 14008KT 00/M05 A3019 RMK A01 T00021053  RH  067%=      5-min Rain = 0
KPD1 132307Z 14008KT 00/M05 A3019 RMK A01 T00011053  RH  067%=      5-min Rain = 0
KPD1 132308Z 14010KT 00/M05 A3019 RMK A01 T00021053  RH  067%=      5-min Rain = 0
KPD1 132309Z 14010KT 00/M05 A3019 RMK A01 T00021053  RH  067%=      5-min Rain = 0
KPD1 132310Z 13009KT 00/M05 A3019 RMK A01 T00021053  RH  067%=      5-min Rain = 0
KPD1 132311Z 14008KT 00/M05 A3019 RMK A01 T00011053  RH  067%=      5-min Rain = 0
KPD1 132312Z 13010KT 00/M05 A3019 RMK A01 T00011053  RH  067%=      5-min Rain = 0
KPD1 132313Z 13010KT 00/M05 A3019 RMK A01 T00011054  RH  067%=      5-min Rain = 0
KPD1 132314Z 13009KT 00/05 A3019 RMK A01 T00000-54  RH  067%=      5-min Rain = 0
KPD1 132315Z 13008G13KT 00/05 A3019 RMK A01 T00000-54  RH  067%=      5-min Rain = 0
KPD1 132316Z 14006G11KT 00/M05 A3019 RMK A01 T00011053  RH  067%=      5-min Rain = 0
KPD1 132317Z 15008KT 00/M05 A3019 RMK A01 T00011053  RH  067%=      5-min Rain = 0
KPD1 132318Z 14007KT 00/05 A3019 RMK A01 T00000-54  RH  067%=      5-min Rain = 0
KPD1 132319Z 12004KT 00/05 A3019 RMK A01 T00000-54  RH  067%=      5-min Rain = 0
KPD1 132320Z 14005KT 00/05 A3019 RMK A01 T00000-54  RH  067%=      5-min Rain = 0
KPD1 132321Z 15007KT 00/05 A3019 RMK A01 T00000-54  RH  067%=      5-min Rain = 0
KPD1 132322Z 14009KT 00/06 A3019 RMK A01 T00-00-55  RH  067%=      5-min Rain = 0
KPD1 132323Z 14009KT M00/M06 A3019 RMK A01 T10011056  RH  066%=      5-min Rain = 0
KPD1 132324Z 15007KT M00/M06 A3019 RMK A01 T10011057  RH  066%=      5-min Rain = 0
KPD1 132325Z 13008KT M00/M06 A3019 RMK A01 T10011056  RH  066%=      5-min Rain = 0
KPD1 132326Z 13005KT M00/M06 A3019 RMK A01 T10021057  RH  066%=      5-min Rain = 0
KPD1 132327Z 13007KT M00/M06 A3019 RMK A01 T10021056  RH  067%=      5-min Rain = 0
KPD1 132328Z 13007KT M00/M06 A3019 RMK A01 T10021057  RH  067%=      5-min Rain = 0
KPD1 132329Z 14008KT M00/M06 A3019 RMK A01 T10021057  RH  067%=      5-min Rain = 0
KPD1 132330Z 13006KT M00/M06 A3019 RMK A01 T10021057  RH  067%=      5-min Rain = 0
KPD1 132331Z 15009KT M00/M06 A3019 RMK A01 T10021056  RH  067%=      5-min Rain = 0
KPD1 132332Z 14010KT M00/M06 A3019 RMK A01 T10021056  RH  067%=      5-min Rain = 0
KPD1 132333Z 14008KT M00/M06 A3019 RMK A01 T10021057  RH  067%=      5-min Rain = 0
KPD1 132334Z 15008KT M00/M06 A3019 RMK A01 T10021056  RH  067%=      5-min Rain = 0
KPD1 132335Z 13006KT M00/M06 A3019 RMK A01 T10021057  RH  067%=      5-min Rain = 0
KPD1 132336Z 14006KT M00/M06 A3019 RMK A01 T10031057  RH  067%=      5-min Rain = 0
KPD1 132337Z 13006KT M00/M06 A3019 RMK A01 T10021056  RH  067%=      5-min Rain = 0
KPD1 132338Z 13008KT M00/M06 A3019 RMK A01 T10031056  RH  067%=      5-min Rain = 0
KPD1 132339Z 15008KT M00/M06 A3019 RMK A01 T10031057  RH  067%=      5-min Rain = 0
KPD1 132340Z 15006KT M00/M06 A3019 RMK A01 T10031057  RH  067%=      5-min Rain = 0
KPD1 132341Z 15006KT M00/M06 A3019 RMK A01 T10031057  RH  067%=      5-min Rain = 0
KPD1 132342Z 13005KT M00/M06 A3019 RMK A01 T10031056  RH  067%=      5-min Rain = 0
KPD1 132343Z 15006KT M00/M06 A3019 RMK A01 T10031055  RH  068%=      5-min Rain = 0
KPD1 132344Z 15007KT M00/M06 A3019 RMK A01 T10031057  RH  067%=      5-min Rain = 0
KPD1 132345Z 12006KT M00/M06 A302 RMK A01 T10031057  RH  067%=      5-min Rain = 0
KPD1 132346Z 13005KT M00/M06 A302 RMK A01 T10041057  RH  067%=      5-min Rain = 0
KPD1 132347Z 13005KT M00/M06 A302 RMK A01 T10041057  RH  067%=      5-min Rain = 0
KPD1 132348Z 11006KT M00/M06 A302 RMK A01 T10041056  RH  068%=      5-min Rain = 0
KPD1 132349Z 11006KT M00/M06 A302 RMK A01 T10031056  RH  068%=      5-min Rain = 0
KPD1 132350Z 13009KT M00/M06 A302 RMK A01 T10041056  RH  068%=      5-min Rain = 0
KPD1 132351Z 13008KT M00/M06 A302 RMK A01 T10041057  RH  067%=      5-min Rain = 0
KPD1 132352Z 13005KT M00/M06 A302 RMK A01 T10041057  RH  067%=      5-min Rain = 0
KPD1 132353Z 12007KT M00/M06 A302 RMK A01 T10041057  RH  067%=      5-min Rain = 0
KPD1 132354Z 14004KT M00/M06 A302 RMK A01 T10041057  RH  067%=      5-min Rain = 0
KPD1 132355Z 14006KT M00/M06 A302 RMK A01 T10041057  RH  068%=      5-min Rain = 0
KPD1 132356Z 14007KT M00/M06 A302 RMK A01 T10041057  RH  068%=      5-min Rain = 0
KPD1 132357Z 13004KT M00/M06 A302 RMK A01 T10041057  RH  068%=      5-min Rain = 0
KPD1 132358Z 14004KT M00/M06 A302 RMK A01 T10041057  RH  068%=      5-min Rain = 0
KPD1 132359Z 13003KT M00/M06 A302 RMK A01 T10041057  RH  068%=      5-min Rain = 0
KPD1 140000Z 11004KT M01/M06 A302 RMK A01 T10051057  RH  068%=      5-min Rain = 0
KPD1 140001Z 13004KT M00/M06 A302 RMK A01 T10041056  RH  068%=      5-min Rain = 0
KPD1 140002Z 13006KT M01/M06 A302 RMK A01 T10051057  RH  068%=      5-min Rain = 0
KPD1 140003Z 12006KT M00/M06 A302 RMK A01 T10041057  RH  067%=      5-min Rain = 0
KPD1 140004Z 12005KT M01/M06 A302 RMK A01 T10051058  RH  067%=      5-min Rain = 0
KPD1 140005Z 11006KT M01/M06 A302 RMK A01 T10061058  RH  068%=      5-min Rain = 0
KPD1 140006Z 12009KT M01/M06 A302 RMK A01 T10061058  RH  067%=      5-min Rain = 0
KPD1 140007Z 12010KT M01/M06 A302 RMK A01 T10061059  RH  067%=      5-min Rain = 0
KPD1 140008Z 12007KT M01/M06 A302 RMK A01 T10061059  RH  067%=      5-min Rain = 0
KPD1 140009Z 12008KT M01/M06 A302 RMK A01 T10071060  RH  067%=      5-min Rain = 0
KPD1 140010Z 12009KT M01/M06 A302 RMK A01 T10071060  RH  067%=      5-min Rain = 0
KPD1 140011Z 14010KT M01/M06 A302 RMK A01 T10071060  RH  067%=      5-min Rain = 0
KPD1 140012Z 14011KT M01/M06 A302 RMK A01 T10071061  RH  067%=      5-min Rain = 0
KPD1 140013Z 14009KT M01/M06 A302 RMK A01 T10071061  RH  067%=      5-min Rain = 0
KPD1 140014Z 14007KT M01/M06 A302 RMK A01 T10081062  RH  067%=      5-min Rain = 0
KPD1 140015Z 13009KT M01/M06 A302 RMK A01 T10081061  RH  067%=      5-min Rain = 0
KPD1 140016Z 12010KT M01/M06 A302 RMK A01 T10081061  RH  067%=      5-min Rain = 0
KPD1 140017Z 14006KT M01/M06 A302 RMK A01 T10081062  RH  067%=      5-min Rain = 0
KPD1 140018Z 12010KT M01/M06 A302 RMK A01 T10091062  RH  067%=      5-min Rain = 0
KPD1 140019Z 13006KT M01/M06 A302 RMK A01 T10091062  RH  067%=      5-min Rain = 0
KPD1 140020Z 12008KT M01/M06 A302 RMK A01 T10091062  RH  067%=      5-min Rain = 0
KPD1 140021Z 13007KT M01/M06 A302 RMK A01 T10081062  RH  067%=      5-min Rain = 0
KPD1 140022Z 12008KT M01/M06 A302 RMK A01 T10081061  RH  067%=      5-min Rain = 0
KPD1 140023Z 13008G13KT M01/M06 A302 RMK A01 T10091062  RH  067%=      5-min Rain = 0
KPD1 140024Z 13009KT M01/M06 A302 RMK A01 T10091062  RH  067%=      5-min Rain = 0
KPD1 140025Z 12011KT M01/M06 A3021 RMK A01 T10091063  RH  067%=      5-min Rain = 0
KPD1 140026Z 13010KT M01/M06 A3021 RMK A01 T10091063  RH  067%=      5-min Rain = 0
KPD1 140027Z 13009KT M01/M06 A3021 RMK A01 T10091064  RH  067%=      5-min Rain = 0
KPD1 140028Z 15006KT M01/M06 A3021 RMK A01 T10101064  RH  067%=      5-min Rain = 0
KPD1 140029Z 12004KT M01/M06 A302 RMK A01 T10101063  RH  067%=      5-min Rain = 0
KPD1 140030Z 12005KT M01/M06 A302 RMK A01 T10101063  RH  067%=      5-min Rain = 0
KPD1 140031Z 14007KT M01/M06 A3021 RMK A01 T10101062  RH  068%=      5-min Rain = 0
KPD1 140032Z 12008KT M01/M06 A3021 RMK A01 T10101062  RH  068%=      5-min Rain = 0
KPD1 140033Z 12010G15KT M01/M06 A3021 RMK A01 T10101063  RH  067%=      5-min Rain = 0
KPD1 140034Z 12007KT M01/M06 A3021 RMK A01 T10101064  RH  067%=      5-min Rain = 0
KPD1 140035Z 12008G13KT M01/M06 A3021 RMK A01 T10101064  RH  067%=      5-min Rain = 0
KPD1 140036Z 13006G11KT M01/M06 A3021 RMK A01 T10101064  RH  067%=      5-min Rain = 0
KPD1 140037Z 11009G15KT M01/M06 A3021 RMK A01 T10101064  RH  067%=      5-min Rain = 0
KPD1 140038Z 11010KT M01/M06 A3021 RMK A01 T10101064  RH  067%=      5-min Rain = 0
KPD1 140039Z 12007G12KT M01/M06 A3021 RMK A01 T10101064  RH  067%=      5-min Rain = 0
KPD1 140040Z 11010KT M01/M07 A3021 RMK A01 T10111065  RH  067%=      5-min Rain = 0
KPD1 140041Z 13006KT M01/M07 A3021 RMK A01 T10111065  RH  067%=      5-min Rain = 0
KPD1 140042Z 14006KT M01/M06 A3021 RMK A01 T10111064  RH  067%=      5-min Rain = 0
KPD1 140043Z 13006KT M01/M06 A3021 RMK A01 T10111064  RH  067%=      5-min Rain = 0
KPD1 140044Z 12007KT M01/M06 A3021 RMK A01 T10111064  RH  067%=      5-min Rain = 0
KPD1 140045Z 13007KT M01/M06 A3021 RMK A01 T10111064  RH  067%=      5-min Rain = 0
KPD1 140046Z 12007KT M01/M06 A3021 RMK A01 T10111064  RH  067%=      5-min Rain = 0
KPD1 140047Z 11008KT M01/M06 A3021 RMK A01 T10111064  RH  067%=      5-min Rain = 0
KPD1 140048Z 13007KT M01/M07 A3021 RMK A01 T10111065  RH  067%=      5-min Rain = 0
KPD1 140049Z 13006KT M01/M07 A3021 RMK A01 T10111066  RH  067%=      5-min Rain = 0
KPD1 140050Z 12005KT M01/M07 A3021 RMK A01 T10111065  RH  067%=      5-min Rain = 0
KPD1 140051Z 13005KT M01/M07 A3021 RMK A01 T10111065  RH  067%=      5-min Rain = 0
KPD1 140052Z 12006KT M01/M07 A3021 RMK A01 T10111065  RH  067%=      5-min Rain = 0
KPD1 140053Z 13006KT M01/M07 A3021 RMK A01 T10111065  RH  067%=      5-min Rain = 0
KPD1 140054Z 12005KT M01/M07 A3021 RMK A01 T10111065  RH  067%=      5-min Rain = 0
KPD1 140055Z 13005KT M01/M06 A3021 RMK A01 T10111064  RH  067%=      5-min Rain = 0
KPD1 140056Z 14005KT M01/M06 A3021 RMK A01 T10111064  RH  067%=      5-min Rain = 0
KPD1 140057Z 12005KT M01/M06 A3022 RMK A01 T10111064  RH  067%=      5-min Rain = 0
KPD1 140058Z 13004KT M01/M06 A3022 RMK A01 T10111063  RH  068%=      5-min Rain = 0
KPD1 140059Z 13006KT M01/M06 A3022 RMK A01 T10111063  RH  068%=      5-min Rain = 0
KPD1 140100Z 14005KT M01/M06 A3022 RMK A01 T10111064  RH  068%=      5-min Rain = 0
KPD1 140101Z 14008KT M01/M06 A3022 RMK A01 T10111064  RH  067%=      5-min Rain = 0
KPD1 140102Z 14006KT M01/M07 A3022 RMK A01 T10121065  RH  067%=      5-min Rain = 0
KPD1 140103Z 14007KT M01/M07 A3022 RMK A01 T10121065  RH  067%=      5-min Rain = 0
KPD1 140104Z 13007KT M01/M07 A3022 RMK A01 T10121065  RH  067%=      5-min Rain = 0
KPD1 140105Z 14006KT M01/M07 A3022 RMK A01 T10121065  RH  067%=      5-min Rain = 0
KPD1 140106Z 14007KT M01/M07 A3022 RMK A01 T10121066  RH  067%=      5-min Rain = 0
KPD1 140107Z 12007KT M01/M07 A3022 RMK A01 T10121066  RH  067%=      5-min Rain = 0
KPD1 140108Z 12010KT M01/M07 A3022 RMK A01 T10121066  RH  067%=      5-min Rain = 0
KPD1 140109Z 12012KT M01/M07 A3022 RMK A01 T10121067  RH  067%=      5-min Rain = 0
KPD1 140110Z 13011KT M01/M07 A3022 RMK A01 T10131067  RH  066%=      5-min Rain = 0
KPD1 140111Z 14008KT M01/M07 A3022 RMK A01 T10121067  RH  066%=      5-min Rain = 0
KPD1 140112Z 13004KT M01/M07 A3022 RMK A01 T10131067  RH  066%=      5-min Rain = 0
KPD1 140113Z 15006KT M01/M07 A3022 RMK A01 T10131067  RH  067%=      5-min Rain = 0
KPD1 140114Z 12006KT M01/M07 A3022 RMK A01 T10131066  RH  067%=      5-min Rain = 0
KPD1 140115Z 14008KT M01/M07 A3022 RMK A01 T10131066  RH  067%=      5-min Rain = 0
KPD1 140116Z 12010KT M01/M07 A3022 RMK A01 T10121065  RH  067%=      5-min Rain = 0
KPD1 140117Z 11008KT M01/M07 A3022 RMK A01 T10131066  RH  067%=      5-min Rain = 0
KPD1 140118Z 13008KT M01/M07 A3022 RMK A01 T10131066  RH  067%=      5-min Rain = 0
KPD1 140119Z 13008KT M01/M07 A3023 RMK A01 T10131066  RH  067%=      5-min Rain = 0
KPD1 140120Z 15007KT M01/M07 A3022 RMK A01 T10131067  RH  067%=      5-min Rain = 0
KPD1 140121Z 13007KT M01/M07 A3023 RMK A01 T10131066  RH  067%=      5-min Rain = 0
KPD1 140122Z 12009KT M01/M07 A3023 RMK A01 T10131066  RH  067%=      5-min Rain = 0
KPD1 140123Z 14006KT M01/M07 A3023 RMK A01 T10131067  RH  067%=      5-min Rain = 0
KPD1 140124Z 14009KT M01/M07 A3023 RMK A01 T10131067  RH  067%=      5-min Rain = 0
KPD1 140125Z 14008KT M01/M07 A3023 RMK A01 T10131067  RH  067%=      5-min Rain = 0
KPD1 140126Z 14009KT M01/M07 A3023 RMK A01 T10131067  RH  067%=      5-min Rain = 0
KPD1 140127Z 14008KT M01/M07 A3023 RMK A01 T10131067  RH  067%=      5-min Rain = 0
KPD1 140128Z 14010KT M01/M07 A3023 RMK A01 T10131067  RH  067%=      5-min Rain = 0
KPD1 140129Z 14010KT M01/M07 A3023 RMK A01 T10131067  RH  067%=      5-min Rain = 0
KPD1 140130Z 12010KT M01/M07 A3023 RMK A01 T10131068  RH  066%=      5-min Rain = 0
KPD1 140131Z 13010KT M01/M07 A3023 RMK A01 T10131068  RH  066%=      5-min Rain = 0
KPD1 140132Z 14008KT M01/M07 A3023 RMK A01 T10131068  RH  066%=      5-min Rain = 0
KPD1 140133Z 13008KT M01/M07 A3023 RMK A01 T10141068  RH  066%=      5-min Rain = 0
KPD1 140134Z 14008KT M01/M07 A3023 RMK A01 T10141068  RH  066%=      5-min Rain = 0
KPD1 140135Z 14008G13KT M01/M07 A3023 RMK A01 T10141068  RH  066%=      5-min Rain = 0
KPD1 140136Z 13009KT M01/M07 A3023 RMK A01 T10141068  RH  067%=      5-min Rain = 0
KPD1 140137Z 15010KT M01/M07 A3023 RMK A01 T10141068  RH  067%=      5-min Rain = 0
KPD1 140138Z 13009KT M01/M07 A3023 RMK A01 T10141068  RH  067%=      5-min Rain = 0
KPD1 140139Z 14008KT M01/M07 A3023 RMK A01 T10141068  RH  066%=      5-min Rain = 0
KPD1 140140Z 14008KT M01/M07 A3023 RMK A01 T10141068  RH  066%=      5-min Rain = 0
KPD1 140141Z 12005KT M01/M07 A3023 RMK A01 T10141068  RH  067%=      5-min Rain = 0
KPD1 140142Z 14005KT M01/M07 A3023 RMK A01 T10131067  RH  067%=      5-min Rain = 0
KPD1 140143Z 13006KT M01/M07 A3023 RMK A01 T10131066  RH  067%=      5-min Rain = 0
KPD1 140144Z 13006KT M01/M07 A3023 RMK A01 T10141067  RH  067%=      5-min Rain = 0
KPD1 140145Z 14008KT M01/M07 A3023 RMK A01 T10141067  RH  067%=      5-min Rain = 0
KPD1 140146Z 13009KT M01/M07 A3023 RMK A01 T10141067  RH  067%=      5-min Rain = 0
KPD1 140147Z 13008KT M01/M07 A3023 RMK A01 T10131067  RH  067%=      5-min Rain = 0
KPD1 140148Z 14008KT M01/M07 A3023 RMK A01 T10141067  RH  067%=      5-min Rain = 0
KPD1 140149Z 11009KT M01/M07 A3023 RMK A01 T10141068  RH  067%=      5-min Rain = 0
KPD1 140150Z 11007KT M01/M07 A3023 RMK A01 T10141068  RH  067%=      5-min Rain = 0
KPD1 140151Z 12009G14KT M01/M07 A3024 RMK A01 T10141068  RH  066%=      5-min Rain = 0
KPD1 140152Z 12009KT M01/M07 A3023 RMK A01 T10141069  RH  066%=      5-min Rain = 0
KPD1 140153Z 12010KT M01/M07 A3024 RMK A01 T10141069  RH  066%=      5-min Rain = 0
KPD1 140154Z 14011KT M01/M07 A3024 RMK A01 T10141069  RH  066%=      5-min Rain = 0
KPD1 140155Z 14010KT M01/M07 A3024 RMK A01 T10141070  RH  066%=      5-min Rain = 0
KPD1 140156Z 13010KT M01/M07 A3024 RMK A01 T10141069  RH  066%=      5-min Rain = 0
KPD1 140157Z 13009KT M01/M07 A3024 RMK A01 T10141069  RH  066%=      5-min Rain = 0
KPD1 140158Z 13010KT M01/M07 A3023 RMK A01 T10141069  RH  066%=      5-min Rain = 0
KPD1 140159Z 14011KT M01/M07 A3023 RMK A01 T10141069  RH  066%=      5-min Rain = 0
KPD1 140200Z 14009KT M01/M07 A3023 RMK A01 T10141069  RH  066%=      5-min Rain = 0
KPD1 140201Z 13012KT M01/M07 A3024 RMK A01 T10141069  RH  066%=      5-min Rain = 0
KPD1 140202Z 14012KT M01/M07 A3024 RMK A01 T10141070  RH  066%=      5-min Rain = 0
KPD1 140203Z 12010KT M02/M07 A3024 RMK A01 T10151070  RH  066%=      5-min Rain = 0
KPD1 140204Z 13010KT M02/M07 A3024 RMK A01 T10151071  RH  066%=      5-min Rain = 0
KPD1 140205Z 13010KT M02/M07 A3024 RMK A01 T10151071  RH  066%=      5-min Rain = 0
KPD1 140206Z 12009KT M02/M07 A3024 RMK A01 T10151071  RH  066%=      5-min Rain = 0
KPD1 140207Z 13005KT M02/M07 A3024 RMK A01 T10151071  RH  066%=      5-min Rain = 0
KPD1 140208Z 13006G11KT M02/M07 A3024 RMK A01 T10161071  RH  066%=      5-min Rain = 0
KPD1 140209Z 12008KT M02/M07 A3024 RMK A01 T10161070  RH  066%=      5-min Rain = 0
KPD1 140210Z 12008KT M02/M07 A3024 RMK A01 T10151071  RH  066%=      5-min Rain = 0
KPD1 140211Z 12007KT M02/M07 A3024 RMK A01 T10151071  RH  066%=      5-min Rain = 0
KPD1 140212Z 14005KT M02/M07 A3024 RMK A01 T10161070  RH  066%=      5-min Rain = 0
KPD1 140213Z 13006KT M02/M07 A3024 RMK A01 T10161070  RH  066%=      5-min Rain = 0
KPD1 140214Z 14009G15KT M02/M07 A3024 RMK A01 T10151070  RH  066%=      5-min Rain = 0
KPD1 140215Z 14010KT M02/M07 A3024 RMK A01 T10161071  RH  066%=      5-min Rain = 0
KPD1 140216Z 14012KT M02/M07 A3024 RMK A01 T10161072  RH  066%=      5-min Rain = 0
KPD1 140217Z 13010KT M02/M07 A3024 RMK A01 T10161073  RH  065%=      5-min Rain = 0
KPD1 140218Z 14009KT M02/M07 A3024 RMK A01 T10161072  RH  065%=      5-min Rain = 0
KPD1 140219Z 14008KT M02/M07 A3024 RMK A01 T10161072  RH  065%=      5-min Rain = 0
KPD1 140220Z 13009KT M02/M07 A3024 RMK A01 T10161073  RH  065%=      5-min Rain = 0
KPD1 140221Z 13009KT M02/M07 A3024 RMK A01 T10161074  RH  065%=      5-min Rain = 0
KPD1 140222Z 15008KT M02/M07 A3024 RMK A01 T10171074  RH  065%=      5-min Rain = 0
KPD1 140223Z 15009KT M02/M08 A3024 RMK A01 T10171075  RH  064%=      5-min Rain = 0
KPD1 140224Z 15009KT M02/M08 A3024 RMK A01 T10171075  RH  064%=      5-min Rain = 0
KPD1 140225Z 15010KT M02/M08 A3024 RMK A01 T10171076  RH  064%=      5-min Rain = 0
KPD1 140226Z 14009KT M02/M08 A3025 RMK A01 T10171076  RH  064%=      5-min Rain = 0
KPD1 140227Z 13009KT M02/M08 A3024 RMK A01 T10171076  RH  064%=      5-min Rain = 0
KPD1 140228Z 15010G15KT M02/M08 A3025 RMK A01 T10171076  RH  064%=      5-min Rain = 0
KPD1 140229Z 15012KT M02/M08 A3025 RMK A01 T10171077  RH  064%=      5-min Rain = 0
KPD1 140230Z 14008G13KT M02/M08 A3025 RMK A01 T10171077  RH  063%=      5-min Rain = 0
KPD1 140231Z 14010G15KT M02/M08 A3025 RMK A01 T10171077  RH  064%=      5-min Rain = 0
KPD1 140232Z 15011KT M02/M08 A3025 RMK A01 T10171077  RH  064%=      5-min Rain = 0
KPD1 140233Z 14011KT M02/M08 A3025 RMK A01 T10171078  RH  063%=      5-min Rain = 0
KPD1 140234Z 14013KT M02/M08 A3025 RMK A01 T10171078  RH  063%=      5-min Rain = 0
KPD1 140235Z 14010G15KT M02/M08 A3025 RMK A01 T10171079  RH  063%=      5-min Rain = 0
KPD1 140236Z 14008KT M02/M08 A3025 RMK A01 T10181079  RH  063%=      5-min Rain = 0
KPD1 140237Z 14010KT M02/M08 A3025 RMK A01 T10181079  RH  063%=      5-min Rain = 0
KPD1 140238Z 14009G14KT M02/M08 A3025 RMK A01 T10181079  RH  063%=      5-min Rain = 0
KPD1 140239Z 14010KT M02/M08 A3025 RMK A01 T10181079  RH  063%=      5-min Rain = 0
KPD1 140240Z 13009KT M02/M08 A3025 RMK A01 T10171079  RH  063%=      5-min Rain = 0
KPD1 140241Z 13009G14KT M02/M08 A3025 RMK A01 T10181080  RH  062%=      5-min Rain = 0
KPD1 140242Z 12010KT M02/M08 A3025 RMK A01 T10181081  RH  062%=      5-min Rain = 0
KPD1 140243Z 13010KT M02/M08 A3025 RMK A01 T10191082  RH  062%=      5-min Rain = 0
KPD1 140244Z 13008KT M02/M08 A3025 RMK A01 T10191082  RH  062%=      5-min Rain = 0
KPD1 140245Z 13009KT M02/M08 A3025 RMK A01 T10191082  RH  062%=      5-min Rain = 0
KPD1 140246Z 14009KT M02/M08 A3025 RMK A01 T10191081  RH  062%=      5-min Rain = 0
KPD1 140247Z 15008KT M02/M08 A3025 RMK A01 T10191082  RH  062%=      5-min Rain = 0
KPD1 140248Z 15009G14KT M02/M08 A3025 RMK A01 T10191081  RH  062%=      5-min Rain = 0
KPD1 140249Z 14008KT M02/M08 A3025 RMK A01 T10191081  RH  062%=      5-min Rain = 0
KPD1 140250Z 14008KT M02/M08 A3025 RMK A01 T10191082  RH  062%=      5-min Rain = 0
KPD1 140251Z 14011KT M02/M08 A3025 RMK A01 T10191082  RH  062%=      5-min Rain = 0
KPD1 140252Z 15013KT M02/M08 A3025 RMK A01 T10191082  RH  062%=      5-min Rain = 0
KPD1 140253Z 15008G15KT M02/M08 A3025 RMK A01 T10201083  RH  062%=      5-min Rain = 0
KPD1 140254Z 15011G16KT M02/M08 A3025 RMK A01 T10201083  RH  062%=      5-min Rain = 0
KPD1 140255Z 15009G16KT M02/M08 A3025 RMK A01 T10201083  RH  062%=      5-min Rain = 0
KPD1 140256Z 15013KT M02/M08 A3025 RMK A01 T10211083  RH  062%=      5-min Rain = 0
KPD1 140257Z 14010KT M02/M08 A3025 RMK A01 T10211084  RH  062%=      5-min Rain = 0
KPD1 140258Z 14011KT M02/M08 A3025 RMK A01 T10211083  RH  062%=      5-min Rain = 0
KPD1 140259Z 13012KT M02/M08 A3025 RMK A01 T10211084  RH  062%=      5-min Rain = 0
KPD1 140300Z 15008KT M02/M08 A3025 RMK A01 T10211084  RH  062%=      5-min Rain = 0
KPD1 140301Z 13010KT M02/M08 A3025 RMK A01 T10211084  RH  062%=      5-min Rain = 0
KPD1 140302Z 14013KT M02/M08 A3025 RMK A01 T10211084  RH  062%=      5-min Rain = 0
KPD1 140303Z 13012KT M02/M08 A3025 RMK A01 T10211084  RH  062%=      5-min Rain = 0
KPD1 140304Z 14011KT M02/M08 A3025 RMK A01 T10211084  RH  062%=      5-min Rain = 0
KPD1 140305Z 14012KT M02/M08 A3025 RMK A01 T10211084  RH  062%=      5-min Rain = 0
KPD1 140306Z 13013KT M02/M09 A3025 RMK A01 T10221085  RH  062%=      5-min Rain = 0
KPD1 140307Z 13012KT M02/M09 A3025 RMK A01 T10221085  RH  062%=      5-min Rain = 0
KPD1 140308Z 13008KT M02/M09 A3025 RMK A01 T10221086  RH  062%=      5-min Rain = 0
KPD1 140309Z 13008KT M02/M09 A3025 RMK A01 T10231086  RH  062%=      5-min Rain = 0
KPD1 140310Z 14008KT M02/M09 A3025 RMK A01 T10231086  RH  062%=      5-min Rain = 0
KPD1 140311Z 14010KT M02/M09 A3025 RMK A01 T10231086  RH  062%=      5-min Rain = 0
KPD1 140312Z 15010G15KT M02/M09 A3025 RMK A01 T10231086  RH  062%=      5-min Rain = 0
KPD1 140313Z 14011KT M02/M09 A3025 RMK A01 T10241087  RH  062%=      5-min Rain = 0
KPD1 140314Z 15010KT M02/M09 A3025 RMK A01 T10241087  RH  062%=      5-min Rain = 0
KPD1 140315Z 13008KT M02/M09 A3025 RMK A01 T10241087  RH  062%=      5-min Rain = 0
KPD1 140316Z 14009KT M02/M09 A3026 RMK A01 T10241088  RH  062%=      5-min Rain = 0
KPD1 140317Z 14013G18KT M03/M09 A3026 RMK A01 T10251089  RH  061%=      5-min Rain = 0
KPD1 140318Z 14014G19KT M03/M09 A3026 RMK A01 T10251090  RH  061%=      5-min Rain = 0
KPD1 140319Z 13010KT M03/M09 A3026 RMK A01 T10261091  RH  061%=      5-min Rain = 0
KPD1 140320Z 14006KT M03/M09 A3026 RMK A01 T10261090  RH  061%=      5-min Rain = 0
KPD1 140321Z 14008KT M03/M09 A3026 RMK A01 T10261090  RH  062%=      5-min Rain = 0
KPD1 140322Z 14009KT M03/M09 A3026 RMK A01 T10271090  RH  062%=      5-min Rain = 0
KPD1 140323Z 14008KT M03/M09 A3026 RMK A01 T10261090  RH  062%=      5-min Rain = 0
KPD1 140324Z 14009KT M03/M09 A3026 RMK A01 T10271089  RH  062%=      5-min Rain = 0
KPD1 140325Z 12010KT M03/M09 A3026 RMK A01 T10261089  RH  062%=      5-min Rain = 0
KPD1 140326Z 14011KT M03/M09 A3026 RMK A01 T10271090  RH  062%=      5-min Rain = 0
KPD1 140327Z 14007KT M03/M09 A3026 RMK A01 T10271090  RH  062%=      5-min Rain = 0
KPD1 140328Z 14009KT M03/M09 A3026 RMK A01 T10271090  RH  062%=      5-min Rain = 0
KPD1 140329Z 15014KT M03/M09 A3026 RMK A01 T10271090  RH  062%=      5-min Rain = 0
KPD1 140330Z 14009KT M03/M09 A3026 RMK A01 T10281091  RH  062%=      5-min Rain = 0
KPD1 140331Z 12010KT M03/M09 A3027 RMK A01 T10281091  RH  062%=      5-min Rain = 0
KPD1 140332Z 13008KT M03/M09 A3026 RMK A01 T10281092  RH  061%=      5-min Rain = 0
KPD1 140333Z 13009G14KT M03/M09 A3027 RMK A01 T10281091  RH  062%=      5-min Rain = 0
KPD1 140334Z 14009KT M03/M09 A3026 RMK A01 T10281092  RH  062%=      5-min Rain = 0
KPD1 140335Z 15008KT M03/M09 A3026 RMK A01 T10281091  RH  062%=      5-min Rain = 0
KPD1 140336Z 14008KT M03/M09 A3026 RMK A01 T10281091  RH  062%=      5-min Rain = 0
KPD1 140337Z 14009KT M03/M09 A3026 RMK A01 T10291091  RH  062%=      5-min Rain = 0
KPD1 140338Z 14009KT M03/M09 A3026 RMK A01 T10291092  RH  062%=      5-min Rain = 0
KPD1 140339Z 14007G12KT M03/M09 A3026 RMK A01 T10291091  RH  062%=      5-min Rain = 0
KPD1 140340Z 13010KT M03/M09 A3026 RMK A01 T10301093  RH  062%=      5-min Rain = 0
KPD1 140341Z 14008KT M03/M09 A3026 RMK A01 T10301094  RH  061%=      5-min Rain = 0
KPD1 140342Z 14010G17KT M03/M09 A3026 RMK A01 T10301094  RH  062%=      5-min Rain = 0
KPD1 140343Z 13013KT M03/M10 A3026 RMK A01 T10311095  RH  061%=      5-min Rain = 0
KPD1 140344Z 13011G16KT M03/M10 A3027 RMK A01 T10311096  RH  061%=      5-min Rain = 0
KPD1 140345Z 13009KT M03/M10 A3027 RMK A01 T10311096  RH  061%=      5-min Rain = 0
KPD1 140346Z 14012KT M03/M10 A3027 RMK A01 T10311097  RH  061%=      5-min Rain = 0
KPD1 140347Z 14010KT M03/M10 A3027 RMK A01 T10321097  RH  061%=      5-min Rain = 0
KPD1 140348Z 14011KT M03/M10 A3027 RMK A01 T10321097  RH  061%=      5-min Rain = 0
KPD1 140349Z 14011KT M03/M10 A3027 RMK A01 T10321097  RH  061%=      5-min Rain = 0
KPD1 140350Z 14012KT M03/M10 A3027 RMK A01 T10321097  RH  061%=      5-min Rain = 0
KPD1 140351Z 12008KT M03/M10 A3027 RMK A01 T10321096  RH  061%=      5-min Rain = 0
KPD1 140352Z 12010G15KT M03/M10 A3027 RMK A01 T10321096  RH  061%=      5-min Rain = 0
KPD1 140353Z 13010KT M03/M10 A3027 RMK A01 T10321096  RH  061%=      5-min Rain = 0
KPD1 140354Z 14009G14KT M03/M10 A3027 RMK A01 T10321096  RH  061%=      5-min Rain = 0
KPD1 140355Z 14009KT M03/M10 A3027 RMK A01 T10331096  RH  061%=      5-min Rain = 0
KPD1 140356Z 14011KT M03/M10 A3027 RMK A01 T10331096  RH  061%=      5-min Rain = 0
KPD1 140357Z 13011G16KT M03/M10 A3027 RMK A01 T10331098  RH  061%=      5-min Rain = 0
KPD1 140358Z 13008G14KT M03/M10 A3027 RMK A01 T10331099  RH  061%=      5-min Rain = 0
KPD1 140359Z 14008G14KT M03/M10 A3027 RMK A01 T10331098  RH  061%=      5-min Rain = 0
KPD1 140400Z 12011KT M03/M10 A3027 RMK A01 T10341099  RH  061%=      5-min Rain = 0
KPD1 140401Z 15009KT M03/M10 A3027 RMK A01 T10341099  RH  061%=      5-min Rain = 0
KPD1 140402Z 14010KT M03/M10 A3027 RMK A01 T10341099  RH  061%=      5-min Rain = 0
KPD1 140403Z 14010KT M03/M10 A3027 RMK A01 T10341099  RH  061%=      5-min Rain = 0
KPD1 140404Z 14010KT M03/M10 A3027 RMK A01 T10341099  RH  061%=      5-min Rain = 0
KPD1 140405Z 14013KT M03/M10 A3027 RMK A01 T10341100  RH  061%=      5-min Rain = 0
KPD1 140406Z 12011G16KT M03/M10 A3027 RMK A01 T10341100  RH  061%=      5-min Rain = 0
KPD1 140407Z 13007KT M04/M10 A3027 RMK A01 T10351100  RH  060%=      5-min Rain = 0
KPD1 140408Z 14010KT M04/M10 A3027 RMK A01 T10351100  RH  061%=      5-min Rain = 0
KPD1 140409Z 13010KT M04/M10 A3027 RMK A01 T10351100  RH  061%=      5-min Rain = 0
KPD1 140410Z 13008KT M04/M10 A3027 RMK A01 T10351100  RH  061%=      5-min Rain = 0
KPD1 140411Z 13009G15KT M04/M10 A3027 RMK A01 T10351099  RH  061%=      5-min Rain = 0
KPD1 140412Z 14007KT M04/M10 A3027 RMK A01 T10351100  RH  061%=      5-min Rain = 0
KPD1 140413Z 14010KT M04/M10 A3027 RMK A01 T10351100  RH  061%=      5-min Rain = 0
KPD1 140414Z 14012KT M04/M10 A3028 RMK A01 T10361100  RH  061%=      5-min Rain = 0
KPD1 140415Z 13008G13KT M04/M10 A3027 RMK A01 T10351100  RH  061%=      5-min Rain = 0
KPD1 140416Z 14010G15KT M04/M10 A3027 RMK A01 T10361100  RH  061%=      5-min Rain = 0
KPD1 140417Z 14010KT M04/M10 A3027 RMK A01 T10361100  RH  061%=      5-min Rain = 0
KPD1 140418Z 15011KT M04/M10 A3027 RMK A01 T10361101  RH  061%=      5-min Rain = 0
KPD1 140419Z 14012G17KT M04/M10 A3027 RMK A01 T10361101  RH  061%=      5-min Rain = 0
KPD1 140420Z 14012G17KT M04/M10 A3027 RMK A01 T10371102  RH  061%=      5-min Rain = 0
KPD1 140421Z 14014KT M04/M10 A3027 RMK A01 T10371102  RH  060%=      5-min Rain = 0
KPD1 140422Z 14014KT M04/M10 A3027 RMK A01 T10371102  RH  060%=      5-min Rain = 0
KPD1 140423Z 14012KT M04/M10 A3027 RMK A01 T10371102  RH  060%=      5-min Rain = 0
KPD1 140424Z 13012KT M04/M10 A3027 RMK A01 T10371102  RH  061%=      5-min Rain = 0
KPD1 140425Z 14011G17KT M04/M10 A3027 RMK A01 T10371102  RH  061%=      5-min Rain = 0
KPD1 140426Z 13011KT M04/M10 A3027 RMK A01 T10381102  RH  061%=      5-min Rain = 0
KPD1 140427Z 13011KT M04/M10 A3027 RMK A01 T10371102  RH  061%=      5-min Rain = 0
KPD1 140428Z 14013KT M04/M10 A3027 RMK A01 T10381102  RH  061%=      5-min Rain = 0
KPD1 140429Z 14010KT M04/M10 A3027 RMK A01 T10381102  RH  061%=      5-min Rain = 0
KPD1 140430Z 14013KT M04/M10 A3027 RMK A01 T10381102  RH  061%=      5-min Rain = 0
KPD1 140431Z 14013KT M04/M10 A3027 RMK A01 T10381103  RH  061%=      5-min Rain = 0
KPD1 140432Z 14013G18KT M04/M10 A3027 RMK A01 T10381103  RH  061%=      5-min Rain = 0
KPD1 140433Z 15013KT M04/M10 A3027 RMK A01 T10381104  RH  061%=      5-min Rain = 0
KPD1 140434Z 14012KT M04/M10 A3027 RMK A01 T10391104  RH  061%=      5-min Rain = 0
KPD1 140435Z 14012KT M04/M10 A3027 RMK A01 T10391103  RH  061%=      5-min Rain = 0
KPD1 140436Z 14012KT M04/M10 A3027 RMK A01 T10391104  RH  061%=      5-min Rain = 0
KPD1 140437Z 15014KT M04/M10 A3028 RMK A01 T10391104  RH  061%=      5-min Rain = 0
KPD1 140438Z 14011KT M04/M10 A3027 RMK A01 T10391103  RH  061%=      5-min Rain = 0
KPD1 140439Z 14012KT M04/M10 A3027 RMK A01 T10391103  RH  061%=      5-min Rain = 0
KPD1 140440Z 14012G17KT M04/M10 A3027 RMK A01 T10401103  RH  061%=      5-min Rain = 0
KPD1 140441Z 14013KT M04/M10 A3027 RMK A01 T10401104  RH  061%=      5-min Rain = 0
KPD1 140442Z 14013KT M04/M10 A3028 RMK A01 T10401104  RH  061%=      5-min Rain = 0
KPD1 140443Z 14012KT M04/M10 A3028 RMK A01 T10401104  RH  061%=      5-min Rain = 0
KPD1 140444Z 14012KT M04/M10 A3028 RMK A01 T10401103  RH  062%=      5-min Rain = 0
KPD1 140445Z 14010KT M04/M10 A3028 RMK A01 T10411103  RH  062%=      5-min Rain = 0
KPD1 140446Z 15012KT M04/M10 A3028 RMK A01 T10401103  RH  062%=      5-min Rain = 0
KPD1 140447Z 14011KT M04/M10 A3028 RMK A01 T10411102  RH  062%=      5-min Rain = 0
KPD1 140448Z 15011KT M04/M10 A3028 RMK A01 T10411102  RH  062%=      5-min Rain = 0
KPD1 140449Z 13012G17KT M04/M10 A3028 RMK A01 T10411103  RH  062%=      5-min Rain = 0
KPD1 140450Z 13011KT M04/M10 A3028 RMK A01 T10421103  RH  062%=      5-min Rain = 0
KPD1 140451Z 14009KT M04/M10 A3028 RMK A01 T10421103  RH  062%=      5-min Rain = 0
KPD1 140452Z 13012KT M04/M10 A3028 RMK A01 T10421103  RH  063%=      5-min Rain = 0
KPD1 140453Z 14013G18KT M04/M10 A3028 RMK A01 T10421103  RH  063%=      5-min Rain = 0
KPD1 140454Z 14013KT M04/M10 A3028 RMK A01 T10421103  RH  062%=      5-min Rain = 0
KPD1 140455Z 14013KT M04/M10 A3028 RMK A01 T10421104  RH  062%=      5-min Rain = 0
KPD1 140456Z 14012G17KT M04/M10 A3028 RMK A01 T10431104  RH  063%=      5-min Rain = 0
KPD1 140457Z 13013KT M04/M10 A3028 RMK A01 T10431104  RH  063%=      5-min Rain = 0
KPD1 140458Z 14011KT M04/M10 A3028 RMK A01 T10431104  RH  063%=      5-min Rain = 0
KPD1 140459Z 15009KT M04/M10 A3028 RMK A01 T10441104  RH  063%=      5-min Rain = 0
KPD1 140500Z 14010KT M04/M10 A3028 RMK A01 T10441103  RH  063%=      5-min Rain = 0
KPD1 140501Z 14010KT M04/M10 A3028 RMK A01 T10441104  RH  063%=      5-min Rain = 0
KPD1 140502Z 15009KT M04/M10 A3028 RMK A01 T10441103  RH  063%=      5-min Rain = 0
KPD1 140503Z 14008G13KT M05/M10 A3028 RMK A01 T10451104  RH  063%=      5-min Rain = 0
KPD1 140504Z 13010KT M05/M10 A3028 RMK A01 T10451104  RH  063%=      5-min Rain = 0
KPD1 140505Z 14008KT M05/M10 A3028 RMK A01 T10451104  RH  063%=      5-min Rain = 0
KPD1 140506Z 13011KT M05/M11 A3028 RMK A01 T10461105  RH  063%=      5-min Rain = 0
KPD1 140507Z 14011KT M05/M11 A3028 RMK A01 T10461105  RH  063%=      5-min Rain = 0
KPD1 140508Z 13008KT M05/M11 A3028 RMK A01 T10471106  RH  063%=      5-min Rain = 0
KPD1 140509Z 13010KT M05/M11 A3028 RMK A01 T10471106  RH  063%=      5-min Rain = 0
KPD1 140510Z 13007KT M05/M11 A3028 RMK A01 T10471106  RH  063%=      5-min Rain = 0
KPD1 140511Z 14008KT M05/M11 A3028 RMK A01 T10481107  RH  063%=      5-min Rain = 0
KPD1 140512Z 14010KT M05/M11 A3028 RMK A01 T10481106  RH  064%=      5-min Rain = 0
KPD1 140513Z 12007KT M05/M11 A3028 RMK A01 T10481106  RH  064%=      5-min Rain = 0
KPD1 140514Z 14007KT M05/M11 A3028 RMK A01 T10491106  RH  064%=      5-min Rain = 0
KPD1 140515Z 14007KT M05/M11 A3028 RMK A01 T10491106  RH  064%=      5-min Rain = 0
KPD1 140516Z 13009KT M05/M11 A3028 RMK A01 T10501106  RH  065%=      5-min Rain = 0
KPD1 140517Z 13005G10KT M05/M11 A3028 RMK A01 T10501106  RH  065%=      5-min Rain = 0
KPD1 140518Z 13007KT M05/M11 A3028 RMK A01 T10501107  RH  064%=      5-min Rain = 0
KPD1 140519Z 14010KT M05/M11 A3028 RMK A01 T10511108  RH  064%=      5-min Rain = 0
KPD1 140520Z 14009KT M05/M11 A3028 RMK A01 T10511108  RH  064%=      5-min Rain = 0
KPD1 140521Z 14011KT M05/M11 A3028 RMK A01 T10511108  RH  064%=      5-min Rain = 0
KPD1 140522Z 14006KT M05/M11 A3028 RMK A01 T10511108  RH  064%=      5-min Rain = 0
KPD1 140523Z 14008KT M05/M11 A3028 RMK A01 T10521109  RH  064%=      5-min Rain = 0
KPD1 140524Z 14009KT M05/M11 A3028 RMK A01 T10521109  RH  064%=      5-min Rain = 0
KPD1 140525Z 14010KT M05/M11 A3028 RMK A01 T10531110  RH  064%=      5-min Rain = 0
KPD1 140526Z 13010KT M05/M11 A3028 RMK A01 T10531110  RH  064%=      5-min Rain = 0
KPD1 140527Z 13009G14KT M05/M11 A3028 RMK A01 T10531110  RH  064%=      5-min Rain = 0
KPD1 140528Z 14009KT M05/M11 A3028 RMK A01 T10531110  RH  064%=      5-min Rain = 0
KPD1 140529Z 13012KT M05/M11 A3028 RMK A01 T10531111  RH  064%=      5-min Rain = 0
KPD1 140530Z 14010KT M05/M11 A3028 RMK A01 T10541111  RH  064%=      5-min Rain = 0
KPD1 140531Z 14008KT M05/M11 A3028 RMK A01 T10541111  RH  064%=      5-min Rain = 0
KPD1 140532Z 12010G15KT M05/M11 A3028 RMK A01 T10541111  RH  064%=      5-min Rain = 0
KPD1 140533Z 14009KT M06/M11 A3028 RMK A01 T10551111  RH  064%=      5-min Rain = 0
KPD1 140534Z 14008KT M06/M11 A3028 RMK A01 T10551112  RH  064%=      5-min Rain = 0
KPD1 140535Z 12008KT M06/M11 A3028 RMK A01 T10551112  RH  064%=      5-min Rain = 0
KPD1 140536Z 13006KT M06/M11 A3028 RMK A01 T10551112  RH  065%=      5-min Rain = 0
KPD1 140537Z 14007KT M06/M11 A3028 RMK A01 T10561111  RH  065%=      5-min Rain = 0
KPD1 140538Z 13007KT M06/M11 A3028 RMK A01 T10561111  RH  065%=      5-min Rain = 0
KPD1 140539Z 14007KT M06/M11 A3028 RMK A01 T10561111  RH  065%=      5-min Rain = 0
KPD1 140540Z 13008KT M06/M11 A3028 RMK A01 T10561111  RH  065%=      5-min Rain = 0
KPD1 140541Z 14011KT M06/M11 A3028 RMK A01 T10561112  RH  065%=      5-min Rain = 0
KPD1 140542Z 13010KT M06/M11 A3028 RMK A01 T10571113  RH  065%=      5-min Rain = 0
KPD1 140543Z 14011KT M06/M11 A3028 RMK A01 T10571113  RH  065%=      5-min Rain = 0
KPD1 140544Z 13011KT M06/M11 A3028 RMK A01 T10571113  RH  064%=      5-min Rain = 0
KPD1 140545Z 13010KT M06/M11 A3028 RMK A01 T10571114  RH  064%=      5-min Rain = 0
KPD1 140546Z 14009KT M06/M11 A3028 RMK A01 T10571114  RH  064%=      5-min Rain = 0
KPD1 140547Z 14007KT M06/M11 A3028 RMK A01 T10571114  RH  064%=      5-min Rain = 0
KPD1 140548Z 14008KT M06/M11 A3028 RMK A01 T10581114  RH  065%=      5-min Rain = 0
KPD1 140549Z 14007KT M06/M11 A3028 RMK A01 T10581114  RH  065%=      5-min Rain = 0
KPD1 140550Z 13006KT M06/M11 A3028 RMK A01 T10581114  RH  065%=      5-min Rain = 0
KPD1 140551Z 14007KT M06/M11 A3028 RMK A01 T10581114  RH  065%=      5-min Rain = 0
KPD1 140552Z 15009KT M06/M12 A3028 RMK A01 T10581115  RH  065%=      5-min Rain = 0
KPD1 140553Z 14009KT M06/M12 A3028 RMK A01 T10591115  RH  064%=      5-min Rain = 0
KPD1 140554Z 13005KT M06/M12 A3028 RMK A01 T10591115  RH  064%=      5-min Rain = 0
KPD1 140555Z 13005KT M06/M12 A3028 RMK A01 T10591115  RH  065%=      5-min Rain = 0
KPD1 140556Z 15005KT M06/M12 A3028 RMK A01 T10591115  RH  065%=      5-min Rain = 0
KPD1 140557Z 14006KT M06/M12 A3028 RMK A01 T10601115  RH  065%=      5-min Rain = 0
KPD1 140558Z 14006KT M06/M12 A3028 RMK A01 T10601115  RH  065%=      5-min Rain = 0
KPD1 140559Z 14007KT M06/M12 A3028 RMK A01 T10601115  RH  065%=      5-min Rain = 0

Page generated in 0.0727 seconds.